Data for 10/02/2006

Time Sea-Level Adjusted Pressure Absolute Pressure Temperature Relative Humidity Dew Point Precipitation   
(mb) (inHg) (mb) (inHg) (C) (F) (%) (C) (F) (mm) (in)
00:01 1018 30.06 847 25.01 8.8 47.8 52 -0.4 31.2 0
00:02 1018 30.06 847 25.01 8.7 47.6 53 -0.4 31.3 0
00:03 1018 30.06 847 25.01 8.6 47.5 53 -0.5 31.2 0
00:04 1018 30.06 847 25.01 8.6 47.5 53 -0.5 31.1 0
00:05 1018 30.06 847 25.01 8.7 47.7 52 -0.7 30.8 0
00:06 1018 30.06 847 25.01 8.7 47.7 52 -0.6 30.9 0
00:07 1018 30.06 847 25.01 8.8 47.9 51 -0.7 30.7 0
00:08 1018 30.06 847 25.01 8.9 48.1 51 -0.7 30.7 0
00:09 1018 30.06 847 25.01 9 48.3 50 -0.8 30.5 0
00:10 1018 30.06 847 25.01 9.2 48.5 49 -0.9 30.4 0
00:11 1018 30.06 847 25.01 9.3 48.7 49 -0.9 30.4 0
00:12 1018 30.06 847 25.01 9.3 48.8 48 -1 30.2 0
00:13 1018 30.06 847 25.01 9.4 48.9 49 -0.8 30.5 0
00:14 1018 30.06 847 25.01 9.5 49 48 -0.9 30.5 0
00:15 1018 30.06 847 25.01 9.5 49.1 47 -1.1 30 0
00:16 1018 30.06 847 25.01 9.5 49.1 48 -0.9 30.4 0
00:17 1018 30.06 847 25.01 9.6 49.2 48 -0.8 30.6 0
00:18 1018 30.06 847 25.01 9.5 49.1 49 -0.7 30.7 0
00:19 1018 30.06 847 25.01 9.4 49 49 -0.8 30.6 0
00:20 1018 30.06 847 25.01 9.3 48.7 50 -0.6 30.9 0
00:21 1018 30.06 847 25.01 9.2 48.5 50 -0.6 30.9 0
00:22 1018 30.06 847 25.01 9.1 48.4 50 -0.6 30.8 0
00:23 1018 30.06 847 25.01 9 48.2 50 -0.7 30.7 0
00:24 1018 30.06 847 25.01 9 48.2 51 -0.7 30.8 0
00:25 1018 30.06 847 25.01 9 48.1 50 -0.8 30.5 0
00:26 1018 30.06 847 25.01 9 48.2 50 -0.9 30.3 0
00:27 1018 30.06 847 25.01 9 48.2 49 -1 30.2 0
00:28 1018 30.06 847 25.01 9 48.2 49 -1.1 29.9 0
00:29 1018 30.06 847 25.01 9.1 48.4 48 -1.3 29.7 0
00:30 1018 30.06 847 25.01 9.2 48.6 49 -1 30.2 0
00:31 1018 30.06 847 25.01 9.3 48.7 47 -1.3 29.7 0
00:32 1018 30.06 847 25.01 9.4 48.9 47 -1.2 29.9 0
00:33 1018 30.06 847 25.01 9.4 49 47 -1.3 29.7 0
00:34 1018 30.06 847 25.01 9.4 49 47 -1.4 29.5 0
00:35 1018 30.06 847 25.01 9.4 49 47 -1.3 29.7 0
00:36 1018 30.06 847 25.01 9.4 49 47 -1.4 29.4 0
00:37 1018 30.06 847 25.01 9.4 49 47 -1.3 29.7 0
00:38 1018 30.06 847 25.01 9.4 48.9 48 -1 30.2 0
00:39 1018 30.06 847 25.01 9.2 48.6 48 -1.2 29.8 0
00:40 1018 30.06 848 25.04 9.1 48.4 49 -1 30.2 0
00:41 1018 30.06 847 25.01 9 48.1 50 -1 30.3 0
00:42 1018 30.06 848 25.04 8.8 47.8 51 -0.9 30.4 0
00:43 1018 30.06 847 25.01 8.5 47.4 51 -1 30.2 0
00:44 1018 30.06 847 25.01 8.4 47.2 51 -1.1 30 0
00:45 1018 30.06 847 25.01 8.3 47 52 -1 30.2 0
00:46 1018 30.06 848 25.04 8.2 46.8 52 -1 30.1 0
00:47 1018 30.06 848 25.04 8.1 46.6 53 -1 30.2 0
00:48 1018 30.06 848 25.04 8 46.4 53 -1 30.1 0
00:49 1018 30.06 848 25.04 7.9 46.2 53 -1.1 30.1 0
00:50 1018 30.06 848 25.04 7.9 46.3 52 -1.2 29.8 0
00:51 1018 30.06 848 25.04 8 46.4 52 -1.3 29.7 0
00:52 1018 30.06 848 25.04 8.1 46.6 52 -1.1 29.9 0
00:53 1018 30.06 848 25.04 8.1 46.6 52 -1.2 29.9 0
00:54 1018 30.06 848 25.04 8.1 46.6 51 -1.3 29.6 0
00:55 1018 30.06 848 25.04 8.1 46.6 52 -1.2 29.8 0
00:56 1018 30.06 848 25.04 8.1 46.6 51 -1.5 29.4 0
00:57 1018 30.06 848 25.04 8.2 46.8 51 -1.4 29.5 0
00:58 1018 30.06 847 25.01 8.2 46.8 52 -1.1 30 0
00:59 1018 30.06 847 25.01 8.1 46.5 52 -1.2 29.8 0
01:00 1018 30.06 847 25.01 7.9 46.3 53 -1.2 29.9 0
01:01 1018 30.06 848 25.04 7.8 46.1 53 -1.2 29.8 0
01:02 1018 30.06 848 25.04 7.7 45.9 53 -1.3 29.7 0
01:03 1018 30.06 848 25.04 7.7 45.9 53 -1.3 29.7 0
01:04 1018 30.06 848 25.04 7.7 45.9 53 -1.1 30 0
01:05 1018 30.06 848 25.04 7.7 45.9 53 -1.3 29.6 0
01:06 1018 30.06 848 25.04 7.9 46.1 51 -1.6 29.1 0
01:07 1018 30.06 848 25.04 8.1 46.5 50 -1.7 29 0
01:08 1018 30.06 848 25.04 8.3 47 50 -1.6 29.2 0
01:09 1018 30.06 848 25.04 8.5 47.2 49 -1.6 29.1 0
01:10 1019 30.09 848 25.04 8.5 47.3 49 -1.5 29.3 0
01:11 1018 30.06 848 25.04 8.5 47.3 49 -1.5 29.3 0
01:12 1019 30.09 848 25.04 8.5 47.4 49 -1.6 29.1 0
01:13 1019 30.09 848 25.04 8.6 47.4 49 -1.4 29.4 0
01:14 1019 30.09 848 25.04 8.5 47.2 49 -1.5 29.3 0
01:15 1019 30.09 848 25.04 8.4 47.2 50 -1.4 29.4 0
01:16 1019 30.09 848 25.04 8.4 47.2 50 -1.4 29.5 0
01:17 1019 30.09 848 25.04 8.3 47 49 -1.7 28.9 0
01:18 1019 30.09 848 25.04 8.5 47.2 49 -1.6 29.1 0
01:19 1019 30.09 848 25.04 8.5 47.3 50 -1.3 29.7 0
01:20 1019 30.09 848 25.04 8.3 47 51 -1.3 29.6 0
01:21 1019 30.09 848 25.04 8.2 46.8 51 -1.2 29.8 0
01:22 1019 30.09 848 25.04 8.1 46.5 52 -1.2 29.9 0
01:23 1019 30.09 848 25.04 8 46.3 52 -1.2 29.8 0
01:24 1019 30.09 848 25.04 7.8 46.1 52 -1.4 29.5 0
01:25 1019 30.09 848 25.04 7.9 46.1 52 -1.3 29.6 0
01:26 1019 30.09 848 25.04 7.9 46.3 50 -1.8 28.7 0
01:27 1019 30.09 848 25.04 8.2 46.7 50 -1.5 29.2 0
01:28 1019 30.09 848 25.04 8.2 46.7 50 -1.6 29.1 0
01:29 1019 30.09 848 25.04 8.2 46.8 49 -1.7 28.9 0
01:30 1019 30.09 848 25.04 8.2 46.8 50 -1.7 29 0
01:31 1019 30.09 848 25.04 8.2 46.8 50 -1.5 29.3 0
01:32 1019 30.09 848 25.04 8.2 46.7 50 -1.5 29.3 0
01:33 1019 30.09 848 25.04 8.1 46.6 50 -1.5 29.2 0
01:34 1019 30.09 848 25.04 8.1 46.5 51 -1.6 29.2 0
01:35 1019 30.09 848 25.04 8 46.3 52 -1.4 29.5 0
01:36 1019 30.09 848 25.04 7.8 46.1 52 -1.3 29.6 0
01:37 1019 30.09 848 25.04 7.7 45.9 52 -1.4 29.5 0
01:38 1019 30.09 848 25.04 7.7 45.8 52 -1.5 29.3 0
01:39 1019 30.09 848 25.04 7.8 46 51 -1.7 29 0
01:40 1019 30.09 848 25.04 7.9 46.2 51 -1.6 29 0
01:41 1019 30.09 848 25.04 7.9 46.3 51 -1.6 29.1 0
01:42 1019 30.09 848 25.04 7.9 46.2 52 -1.4 29.5 0
01:43 1019 30.09 848 25.04 7.8 46 52 -1.4 29.5 0
01:44 1019 30.09 848 25.04 7.6 45.8 53 -1.2 29.8 0
01:45 1019 30.09 848 25.04 7.5 45.5 53 -1.4 29.5 0
01:46 1019 30.09 848 25.04 7.4 45.3 53 -1.5 29.3 0
01:47 1019 30.09 848 25.04 7.4 45.4 53 -1.5 29.4 0
01:48 1019 30.09 848 25.04 7.5 45.4 53 -1.5 29.2 0
01:49 1019 30.09 848 25.04 7.5 45.5 52 -1.6 29.1 0
01:50 1019 30.09 848 25.04 7.6 45.7 52 -1.7 29 0
01:51 1019 30.09 848 25.04 7.7 45.8 52 -1.6 29 0
01:52 1019 30.09 848 25.04 7.7 45.9 52 -1.6 29.2 0
01:53 1019 30.09 848 25.04 7.6 45.7 52 -1.5 29.3 0
01:54 1019 30.09 848 25.04 7.5 45.6 53 -1.5 29.3 0
01:55 1019 30.09 848 25.04 7.5 45.4 53 -1.5 29.4 0
01:56 1019 30.09 848 25.04 7.4 45.3 53 -1.5 29.4 0
01:57 1019 30.09 848 25.04 7.4 45.4 53 -1.5 29.3 0
01:58 1019 30.09 848 25.04 7.4 45.4 53 -1.5 29.3 0
01:59 1019 30.09 848 25.04 7.4 45.3 53 -1.5 29.2 0
02:00 1019 30.09 848 25.04 7.4 45.3 53 -1.6 29.1 0
02:01 1019 30.09 848 25.04 7.4 45.4 52 -1.7 29 0
02:02 1019 30.09 848 25.04 7.5 45.5 52 -1.6 29.1 0
02:03 1019 30.09 848 25.04 7.5 45.6 52 -1.5 29.2 0
02:04 1019 30.09 848 25.04 7.5 45.6 52 -1.6 29.1 0
02:05 1019 30.09 848 25.04 7.5 45.5 52 -1.6 29.2 0
02:06 1019 30.09 848 25.04 7.5 45.5 53 -1.6 29.2 0
02:07 1019 30.09 848 25.04 7.4 45.4 53 -1.5 29.4 0
02:08 1019 30.09 848 25.04 7.3 45.2 53 -1.6 29.1 0
02:09 1019 30.09 848 25.04 7.1 44.9 54 -1.4 29.4 0
02:10 1019 30.09 848 25.04 6.9 44.4 55 -1.5 29.2 0
02:11 1019 30.09 848 25.04 6.7 44.1 56 -1.5 29.3 0
02:12 1019 30.09 848 25.04 6.6 43.9 56 -1.4 29.5 0
02:13 1019 30.09 848 25.04 6.5 43.7 56 -1.5 29.3 0
02:14 1019 30.09 848 25.04 6.5 43.7 57 -1.5 29.3 0
02:15 1019 30.09 848 25.04 6.5 43.7 56 -1.6 29.2 0
02:16 1019 30.09 848 25.04 6.6 43.9 57 -1.4 29.5 0
02:17 1019 30.09 848 25.04 6.6 43.9 56 -1.4 29.4 0
02:18 1019 30.09 848 25.04 6.6 43.9 56 -1.4 29.4 0
02:19 1019 30.09 848 25.04 6.6 43.9 57 -1.4 29.5 0
02:20 1019 30.09 848 25.04 6.7 44 56 -1.6 29.2 0
02:21 1019 30.09 848 25.04 6.8 44.3 55 -1.7 29 0
02:22 1019 30.09 848 25.04 7 44.6 54 -1.5 29.2 0
02:23 1019 30.09 848 25.04 7.1 44.7 54 -1.5 29.2 0
02:24 1019 30.09 848 25.04 7.2 44.9 54 -1.4 29.5 0
02:25 1019 30.09 848 25.04 7.1 44.8 54 -1.5 29.3 0
02:26 1019 30.09 848 25.04 7.2 45 53 -1.7 29 0
02:27 1019 30.09 848 25.04 7.4 45.2 53 -1.7 29 0
02:28 1019 30.09 848 25.04 7.5 45.4 52 -1.8 28.7 0
02:29 1019 30.09 848 25.04 7.6 45.7 51 -1.8 28.8 0
02:30 1019 30.09 848 25.04 7.8 46 51 -1.8 28.7 0
02:31 1019 30.09 848 25.04 7.9 46.3 50 -1.8 28.7 0
02:32 1019 30.09 848 25.04 8.1 46.5 49 -1.9 28.5 0
02:33 1019 30.09 848 25.04 8.2 46.7 49 -1.9 28.5 0
02:34 1019 30.09 848 25.04 8.3 46.9 49 -1.9 28.5 0
02:35 1019 30.09 848 25.04 8.3 46.9 49 -1.7 28.9 0
02:36 1019 30.09 848 25.04 8.2 46.8 49 -1.8 28.7 0
02:37 1019 30.09 848 25.04 8.2 46.7 50 -1.6 29 0
02:38 1019 30.09 848 25.04 8 46.5 50 -1.7 28.9 0
02:39 1019 30.09 848 25.04 8 46.3 51 -1.7 29 0
02:40 1019 30.09 848 25.04 7.8 46.1 51 -1.6 29.2 0
02:41 1019 30.09 848 25.04 7.6 45.6 52 -1.6 29.1 0
02:42 1019 30.09 848 25.04 7.3 45.2 53 -1.5 29.3 0
02:43 1019 30.09 848 25.04 7.1 44.7 54 -1.5 29.3 0
02:44 1019 30.09 848 25.04 6.9 44.4 55 -1.5 29.3 0
02:45 1019 30.09 848 25.04 6.7 44.1 55 -1.5 29.2 0
02:46 1019 30.09 848 25.04 6.6 43.9 56 -1.5 29.2 0
02:47 1019 30.09 848 25.04 6.4 43.6 57 -1.6 29.2 0
02:48 1019 30.09 848 25.04 6.3 43.4 57 -1.6 29.2 0
02:49 1019 30.09 848 25.04 6.2 43.1 57 -1.7 28.9 0
02:50 1019 30.09 848 25.04 6.2 43.1 57 -1.6 29 0
02:51 1019 30.09 848 25.04 6.2 43.1 57 -1.7 28.9 0
02:52 1019 30.09 848 25.04 6.2 43.2 57 -1.7 28.9 0
02:53 1019 30.09 848 25.04 6.3 43.3 55 -2 28.4 0
02:54 1019 30.09 848 25.04 6.5 43.8 54 -2 28.4 0
02:55 1019 30.09 848 25.04 6.7 44.1 54 -1.9 28.6 0
02:56 1019 30.09 848 25.04 6.9 44.3 54 -1.9 28.6 0
02:57 1019 30.09 848 25.04 6.9 44.5 53 -1.9 28.6 0
02:58 1019 30.09 848 25.04 6.9 44.5 53 -1.9 28.6 0
02:59 1019 30.09 848 25.04 7 44.6 53 -1.9 28.6 0
03:00 1019 30.09 848 25.04 7 44.7 53 -1.9 28.6 0
03:01 1019 30.09 848 25.04 7.2 44.9 52 -2.1 28.3 0
03:02 1019 30.09 848 25.04 7.3 45.1 52 -1.9 28.5 0
03:03 1019 30.09 848 25.04 7.4 45.2 52 -1.9 28.5 0
03:04 1019 30.09 848 25.04 7.4 45.3 52 -1.9 28.6 0
03:05 1019 30.09 849 25.07 7.4 45.2 52 -1.8 28.8 0
03:06 1019 30.09 849 25.07 7.3 45.2 52 -1.9 28.5 0
03:07 1019 30.09 849 25.07 7.4 45.3 51 -2 28.4 0
03:08 1019 30.09 849 25.07 7.5 45.5 51 -1.9 28.6 0
03:09 1019 30.09 849 25.07 7.5 45.5 52 -1.8 28.7 0
03:10 1019 30.09 849 25.07 7.5 45.4 51 -1.9 28.6 0
03:11 1019 30.09 849 25.07 7.4 45.4 52 -1.9 28.7 0
03:12 1019 30.09 849 25.07 7.4 45.2 52 -1.9 28.7 0
03:13 1019 30.09 849 25.07 7.3 45.2 52 -1.8 28.7 0
03:14 1019 30.09 849 25.07 7.2 45 52 -1.9 28.6 0
03:15 1019 30.09 849 25.07 7.1 44.8 53 -1.9 28.7 0
03:16 1019 30.09 849 25.07 7 44.5 53 -2 28.4 0
03:17 1019 30.09 849 25.07 6.9 44.4 53 -2 28.4 0
03:18 1019 30.09 849 25.07 6.8 44.3 53 -2 28.5 0
03:19 1019 30.09 849 25.07 6.7 44 54 -1.9 28.6 0
03:20 1019 30.09 849 25.07 6.4 43.6 56 -1.7 28.9 0
03:21 1019 30.09 849 25.07 6.1 43.1 57 -1.6 29.1 0
03:22 1019 30.09 849 25.07 5.8 42.5 58 -1.7 29 0
03:23 1019 30.09 849 25.07 5.5 41.9 60 -1.6 29.1 0
03:24 1019 30.09 849 25.07 5.1 41.1 61 -1.8 28.8 0
03:25 1019 30.09 849 25.07 4.8 40.6 63 -1.7 28.9 0
03:26 1019 30.09 849 25.07 4.5 40.1 64 -1.7 29 0
03:27 1019 30.09 849 25.07 4.2 39.6 65 -1.7 29 0
03:28 1019 30.09 849 25.07 3.8 38.9 67 -1.6 29.1 0
03:29 1019 30.09 849 25.07 3.5 38.3 68 -1.8 28.7 0
03:30 1019 30.09 849 25.07 3.4 38.2 68 -1.9 28.5 0
03:31 1019 30.09 849 25.07 3.5 38.3 67 -2 28.3 0
03:32 1019 30.09 849 25.07 3.6 38.6 67 -2 28.5 0
03:33 1019 30.09 849 25.07 3.8 38.8 67 -1.8 28.7 0
03:34 1019 30.09 849 25.07 4 39.2 66 -1.7 28.9 0
03:35 1019 30.09 849 25.07 4.1 39.3 65 -1.9 28.6 0
03:36 1019 30.09 849 25.07 4.3 39.8 64 -1.8 28.7 0
03:37 1019 30.09 849 25.07 4.6 40.3 63 -1.8 28.7 0
03:38 1019 30.09 849 25.07 4.8 40.7 62 -1.8 28.7 0
03:39 1019 30.09 849 25.07 4.9 40.9 62 -1.8 28.8 0
03:40 1019 30.09 849 25.07 5 41 61 -1.9 28.6 0
03:41 1019 30.09 849 25.07 5.1 41.2 60 -1.9 28.5 0
03:42 1019 30.09 849 25.07 5.2 41.4 60 -1.9 28.6 0
03:43 1019 30.09 849 25.07 5.2 41.4 61 -1.8 28.8 0
03:44 1019 30.09 849 25.07 5.1 41.2 61 -1.7 29 0
03:45 1019 30.09 849 25.07 5 41 62 -1.7 28.9 0
03:46 1019 30.09 849 25.07 4.8 40.6 63 -1.7 29 0
03:47 1019 30.09 849 25.07 4.6 40.3 63 -1.7 28.9 0
03:48 1019 30.09 849 25.07 4.4 40 64 -1.7 29 0
03:49 1019 30.09 849 25.07 4.2 39.6 66 -1.6 29.1 0
03:50 1019 30.09 849 25.07 4 39.2 67 -1.6 29.1 0
03:51 1019 30.09 849 25.07 3.8 38.8 68 -1.6 29.2 0
03:52 1019 30.09 849 25.07 3.6 38.4 68 -1.9 28.6 0
03:53 1019 30.09 849 25.07 3.7 38.6 67 -1.9 28.5 0
03:54 1019 30.09 849 25.07 3.9 38.9 66 -1.9 28.6 0
03:55 1019 30.09 849 25.07 3.9 38.9 67 -1.7 28.9 0
03:56 1019 30.09 849 25.07 3.7 38.7 67 -1.7 28.9 0
03:57 1019 30.09 849 25.07 3.5 38.4 68 -1.8 28.8 0
03:58 1019 30.09 849 25.07 3.6 38.4 68 -1.9 28.7 0
03:59 1019 30.09 849 25.07 3.7 38.7 66 -2 28.4 0
04:00 1019 30.09 849 25.07 4.1 39.4 65 -1.9 28.5 0
04:01 1019 30.09 849 25.07 4.3 39.8 64 -1.8 28.8 0
04:02 1019 30.09 849 25.07 4.4 39.9 64 -1.9 28.6 0
04:03 1019 30.09 849 25.07 4.5 40.1 62 -2.1 28.2 0
04:04 1020 30.12 849 25.07 4.9 40.7 62 -1.9 28.6 0
04:05 1020 30.12 849 25.07 5.1 41.1 61 -1.9 28.6 0
04:06 1020 30.12 849 25.07 5.1 41.1 61 -1.8 28.7 0
04:07 1020 30.12 849 25.07 5.1 41.1 61 -1.7 28.9 0
04:08 1020 30.12 849 25.07 5 41 61 -1.9 28.7 0
04:09 1020 30.12 849 25.07 4.9 40.9 62 -1.8 28.7 0
04:10 1020 30.12 849 25.07 4.8 40.7 63 -1.6 29.2 0
04:11 1020 30.12 849 25.07 4.5 40.1 64 -1.7 29 0
04:12 1020 30.12 849 25.07 4.3 39.8 64 -1.9 28.6 0
04:13 1020 30.12 849 25.07 4.4 39.9 62 -2.2 28.1 0
04:14 1020 30.12 849 25.07 4.7 40.4 62 -2 28.3 0
04:15 1020 30.12 849 25.07 4.9 40.8 61 -2 28.5 0
04:16 1020 30.12 849 25.07 5.2 41.4 59 -2 28.3 0
04:17 1020 30.12 849 25.07 5.6 42.1 57 -2.2 28 0
04:18 1020 30.12 849 25.07 6 42.8 56 -2 28.4 0
04:19 1020 30.12 849 25.07 6.1 43 56 -2 28.4 0
04:20 1020 30.12 849 25.07 6.2 43.1 55 -2.1 28.2 0
04:21 1020 30.12 849 25.07 6.2 43.2 55 -2.1 28.2 0
04:22 1020 30.12 849 25.07 6.2 43.2 55 -2.1 28.2 0
04:23 1020 30.12 849 25.07 6.2 43.1 56 -2 28.4 0
04:24 1020 30.12 849 25.07 6.1 42.9 56 -2.2 28.1 0
04:25 1020 30.12 849 25.07 6.3 43.3 53 -2.5 27.5 0
04:26 1020 30.12 849 25.07 6.7 44 51 -2.8 27 0
04:27 1020 30.12 849 25.07 7.1 44.7 50 -2.6 27.3 0
04:28 1020 30.12 849 25.07 7.3 45.1 50 -2.4 27.6 0
04:29 1020 30.12 849 25.07 7.2 45 50 -2.4 27.7 0
04:30 1020 30.12 849 25.07 7.1 44.8 51 -2.3 27.8 0
04:31 1020 30.12 849 25.07 7 44.7 52 -2.3 27.9 0
04:32 1020 30.12 849 25.07 7 44.5 51 -2.5 27.5 0
04:33 1020 30.12 849 25.07 7 44.6 50 -2.7 27.2 0
04:34 1020 30.12 849 25.07 7.1 44.7 51 -2.4 27.7 0
04:35 1020 30.12 849 25.07 7 44.6 51 -2.5 27.5 0
04:36 1020 30.12 849 25.07 7 44.5 52 -2.2 28.1 0
04:37 1020 30.12 849 25.07 6.7 44 53 -2.1 28.2 0
04:38 1020 30.12 849 25.07 6.5 43.6 54 -2.3 27.9 0
04:39 1020 30.12 849 25.07 6.4 43.5 54 -2.2 28 0
04:40 1020 30.12 849 25.07 6.3 43.3 55 -2.2 28.1 0
04:41 1020 30.12 849 25.07 6.1 43 55 -2.2 28 0
04:42 1020 30.12 849 25.07 6.1 42.9 52 -3.1 26.5 0
04:43 1020 30.12 849 25.07 6.6 43.8 50 -3 26.6 0
04:44 1020 30.12 849 25.07 7 44.6 49 -3 26.6 0
04:45 1020 30.12 849 25.07 7.4 45.3 50 -2.3 27.8 0
04:46 1020 30.12 849 25.07 7.2 44.9 52 -2 28.4 0
04:47 1020 30.12 849 25.07 6.7 44.1 54 -1.8 28.7 0
04:48 1020 30.12 849 25.07 6.2 43.1 56 -1.9 28.6 0
04:49 1020 30.12 849 25.07 5.8 42.5 57 -1.9 28.5 0
04:50 1020 30.12 849 25.07 5.6 42.1 58 -1.9 28.5 0
04:51 1020 30.12 849 25.07 5.5 41.9 59 -1.9 28.6 0
04:52 1020 30.12 849 25.07 5.3 41.5 60 -1.8 28.7 0
04:53 1020 30.12 849 25.07 4.9 40.9 61 -1.9 28.6 0
04:54 1020 30.12 849 25.07 4.7 40.5 62 -1.9 28.6 0
04:55 1020 30.12 849 25.07 4.5 40 63 -1.9 28.6 0
04:56 1020 30.12 849 25.07 4.2 39.6 64 -2 28.4 0
04:57 1020 30.12 849 25.07 4.1 39.5 64 -2 28.3 0
04:58 1020 30.12 849 25.07 4.2 39.5 64 -2 28.3 0
04:59 1020 30.12 849 25.07 4.2 39.5 64 -2 28.4 0
05:00 1020 30.12 849 25.07 4.1 39.3 65 -2 28.4 0
05:01 1020 30.12 849 25.07 4 39.2 64 -2.1 28.2 0
05:02 1020 30.12 849 25.07 3.9 39.1 65 -2.1 28.2 0
05:03 1020 30.12 849 25.07 4 39.1 65 -2.1 28.3 0
05:04 1020 30.12 849 25.07 4 39.2 65 -2.1 28.3 0
05:05 1020 30.12 849 25.07 4 39.1 65 -2 28.4 0
05:06 1020 30.12 849 25.07 3.8 38.9 66 -2 28.4 0
05:07 1020 30.12 849 25.07 3.7 38.7 66 -2 28.4 0
05:08 1020 30.12 849 25.07 3.6 38.5 66 -2 28.3 0
05:09 1020 30.12 849 25.07 3.5 38.4 67 -2 28.4 0
05:10 1020 30.12 849 25.07 3.4 38.2 67 -2 28.4 0
05:11 1020 30.12 849 25.07 3.4 38.2 67 -2 28.4 0
05:12 1020 30.12 849 25.07 3.4 38.2 67 -2 28.3 0
05:13 1020 30.12 849 25.07 3.5 38.3 67 -2.1 28.3 0
05:14 1020 30.12 849 25.07 3.6 38.6 66 -2.1 28.3 0
05:15 1020 30.12 849 25.07 3.8 38.8 66 -2 28.4 0
05:16 1020 30.12 849 25.07 3.9 39 66 -1.9 28.5 0
05:17 1020 30.12 849 25.07 3.9 39 66 -1.9 28.5 0
05:18 1020 30.12 849 25.07 3.9 39 66 -1.8 28.7 0
05:19 1020 30.12 849 25.07 3.7 38.7 67 -1.9 28.6 0
05:20 1020 30.12 849 25.07 3.6 38.5 67 -1.9 28.6 0
05:21 1020 30.12 849 25.07 3.4 38.1 68 -1.9 28.6 0
05:22 1020 30.12 849 25.07 3.3 37.9 69 -1.9 28.6 0
05:23 1020 30.12 849 25.07 3.2 37.7 69 -1.9 28.5 0
05:24 1020 30.12 849 25.07 3.2 37.8 69 -2 28.5 0
05:25 1020 30.12 849 25.07 3.2 37.8 69 -1.9 28.5 0
05:26 1020 30.12 849 25.07 3.3 37.9 68 -2 28.5 0
05:27 1020 30.12 849 25.07 3.3 37.9 69 -1.9 28.5 0
05:28 1020 30.12 849 25.07 3.1 37.6 70 -1.8 28.8 0
05:29 1020 30.12 849 25.07 3 37.4 71 -1.8 28.8 0
05:30 1020 30.12 849 25.07 2.8 37 72 -1.8 28.7 0
05:31 1020 30.12 849 25.07 2.6 36.8 72 -1.9 28.7 0
05:32 1020 30.12 849 25.07 2.5 36.5 72 -2 28.4 0
05:33 1020 30.12 849 25.07 2.7 36.8 71 -2 28.4 0
05:34 1020 30.12 849 25.07 2.8 37 70 -2.1 28.3 0
05:35 1020 30.12 849 25.07 2.9 37.3 69 -2.1 28.2 0
05:36 1020 30.12 849 25.07 3.1 37.7 69 -2.1 28.3 0
05:37 1020 30.12 849 25.07 3.2 37.8 69 -2 28.4 0
05:38 1020 30.12 849 25.07 3.3 37.9 68 -2 28.4 0
05:39 1020 30.12 849 25.07 3.3 38 68 -2 28.4 0
05:40 1020 30.12 849 25.07 3.5 38.2 68 -1.9 28.6 0
05:41 1020 30.12 849 25.07 3.2 37.7 70 -1.7 28.9 0
05:42 1020 30.12 849 25.07 2.8 37 72 -1.8 28.7 0
05:43 1020 30.12 849 25.07 2.5 36.5 73 -1.9 28.5 0
05:44 1020 30.12 849 25.07 2.3 36.1 73 -2 28.4 0
05:45 1020 30.12 849 25.07 2.3 36.2 72 -2.2 28.1 0
05:46 1020 30.12 849 25.07 2.5 36.5 71 -2.3 27.9 0
05:47 1020 30.12 849 25.07 2.8 37.1 69 -2.3 27.9 0
05:48 1020 30.12 849 25.07 3 37.4 68 -2.3 27.8 0
05:49 1020 30.12 849 25.07 3.1 37.6 68 -2.3 27.9 0
05:50 1020 30.12 849 25.07 3.1 37.6 68 -2.2 28 0
05:51 1020 30.12 849 25.07 3 37.3 69 -2.2 28 0
05:52 1020 30.12 849 25.07 2.8 37 69 -2.2 28 0
05:53 1020 30.12 849 25.07 2.6 36.8 70 -2.3 27.9 0
05:54 1020 30.12 849 25.07 2.6 36.8 70 -2.3 27.9 0
05:55 1020 30.12 849 25.07 2.7 36.8 70 -2.3 27.8 0
05:56 1020 30.12 849 25.07 2.7 36.8 69 -2.3 27.8 0
05:57 1020 30.12 849 25.07 2.7 36.9 70 -2.3 27.9 0
05:58 1020 30.12 849 25.07 2.7 36.9 70 -2.3 27.9 0
05:59 1020 30.12 849 25.07 2.6 36.7 71 -2.1 28.2 0
06:00 1020 30.12 849 25.07 2.3 36.2 72 -2.2 28 0
06:01 1020 30.12 849 25.07 2.1 35.7 73 -2.3 27.9 0
06:02 1020 30.12 849 25.07 1.9 35.5 73 -2.3 27.8 0
06:03 1020 30.12 849 25.07 1.8 35.2 74 -2.4 27.7 0
06:04 1020 30.12 849 25.07 1.6 34.9 75 -2.4 27.7 0
06:05 1020 30.12 849 25.07 1.5 34.6 76 -2.4 27.7 0
06:06 1020 30.12 849 25.07 1.5 34.6 75 -2.4 27.6 0
06:07 1020 30.12 849 25.07 1.6 34.9 74 -2.5 27.5 0
06:08 1020 30.12 849 25.07 1.8 35.3 73 -2.5 27.6 0
06:09 1020 30.12 849 25.07 1.9 35.5 73 -2.4 27.7 0
06:10 1020 30.12 849 25.07 1.9 35.5 74 -2.3 27.8 0
06:11 1020 30.12 849 25.07 1.9 35.4 73 -2.4 27.7 0
06:12 1020 30.12 849 25.07 1.9 35.4 73 -2.5 27.5 0
06:13 1020 30.12 849 25.07 2.1 35.8 71 -2.6 27.3 0
06:14 1020 30.12 849 25.07 2.7 36.8 68 -2.7 27.2 0
06:15 1020 30.12 849 25.07 3.2 37.8 65 -2.7 27.2 0
06:16 1020 30.12 849 25.07 3.7 38.6 64 -2.6 27.3 0
06:17 1020 30.12 849 25.07 3.9 39 63 -2.4 27.6 0
06:18 1020 30.12 849 25.07 3.8 38.9 64 -2.4 27.7 0
06:19 1020 30.12 849 25.07 3.6 38.5 65 -2.4 27.7 0
06:20 1020 30.12 849 25.07 3.5 38.3 66 -2.3 27.8 0
06:21 1020 30.12 849 25.07 3.4 38.1 66 -2.3 27.9 0
06:22 1020 30.12 849 25.07 3.3 37.9 67 -2.3 27.9 0
06:23 1020 30.12 849 25.07 3.3 37.9 67 -2.3 27.9 0
06:24 1020 30.12 849 25.07 3.1 37.7 68 -2.3 27.9 0
06:25 1020 30.12 849 25.07 3 37.4 68 -2.3 27.8 0
06:26 1020 30.12 849 25.07 3.1 37.7 67 -2.3 27.9 0
06:27 1020 30.12 849 25.07 3.2 37.8 67 -2.3 27.9 0
06:28 1020 30.12 849 25.07 3.3 37.9 67 -2.2 28 0
06:29 1020 30.12 849 25.07 3.2 37.8 68 -2.2 28.1 0
06:30 1020 30.12 849 25.07 3.1 37.6 68 -2.2 28 0
06:31 1020 30.12 849 25.07 3 37.4 69 -2.1 28.1 0
06:32 1020 30.12 849 25.07 3.1 37.6 69 -2.1 28.2 0
06:33 1020 30.12 849 25.07 3.3 37.9 68 -2 28.4 0
06:34 1020 30.12 849 25.07 3.4 38.2 67 -2 28.4 0
06:35 1020 30.12 849 25.07 3.6 38.4 67 -2 28.3 0
06:36 1020 30.12 849 25.07 3.7 38.7 66 -2.1 28.2 0
06:37 1020 30.12 849 25.07 3.9 39 65 -2.1 28.2 0
06:38 1020 30.12 849 25.07 4 39.2 64 -2.2 28.1 0
06:39 1020 30.12 849 25.07 4.3 39.7 63 -2.2 28.1 0
06:40 1020 30.12 849 25.07 4.5 40.2 62 -2.1 28.2 0
06:41 1020 30.12 849 25.07 4.6 40.2 62 -2 28.4 0
06:42 1020 30.12 849 25.07 4.5 40.1 62 -2.1 28.2 0
06:43 1020 30.12 849 25.07 4.4 39.8 63 -2.1 28.3 0
06:44 1020 30.12 849 25.07 4.2 39.6 64 -2 28.3 0
06:45 1020 30.12 849 25.07 4.1 39.3 64 -2 28.3 0
06:46 1020 30.12 849 25.07 4 39.2 65 -2 28.4 0
06:47 1020 30.12 849 25.07 4 39.2 65 -2 28.3 0
06:48 1020 30.12 849 25.07 4 39.2 65 -2 28.3 0
06:49 1020 30.12 849 25.07 4.1 39.3 64 -2.1 28.3 0
06:50 1020 30.12 849 25.07 4.1 39.4 64 -2.1 28.3 0
06:51 1020 30.12 849 25.07 4.2 39.6 63 -2.1 28.2 0
06:52 1020 30.12 849 25.07 4.3 39.7 63 -2.1 28.2 0
06:53 1020 30.12 849 25.07 4.3 39.7 63 -2.1 28.2 0
06:54 1020 30.12 849 25.07 4.2 39.6 64 -2.1 28.3 0
06:55 1020 30.12 849 25.07 4.2 39.6 64 -2.1 28.2 0
06:56 1020 30.12 849 25.07 4.1 39.4 64 -2.2 28.1 0
06:57 1020 30.12 849 25.07 4.1 39.4 64 -2.2 28.1 0
06:58 1020 30.12 849 25.07 4.1 39.4 63 -2.2 28 0
06:59 1020 30.12 849 25.07 4.1 39.4 64 -2.1 28.2 0
07:00 1020 30.12 849 25.07 4 39.3 64 -2.1 28.2 0
07:01 1020 30.12 849 25.07 3.9 39.1 65 -2 28.3 0
07:02 1020 30.12 849 25.07 3.7 38.7 66 -2 28.4 0
07:03 1020 30.12 849 25.07 3.6 38.5 67 -2 28.4 0
07:04 1020 30.12 849 25.07 3.5 38.2 67 -2 28.4 0
07:05 1020 30.12 849 25.07 3.3 37.9 68 -2 28.4 0
07:06 1020 30.12 849 25.07 3 37.5 69 -2.1 28.3 0
07:07 1020 30.12 849 25.07 3 37.3 69 -2.1 28.3 0
07:08 1020 30.12 849 25.07 2.9 37.2 69 -2.2 28.1 0
07:09 1020 30.12 849 25.07 2.9 37.3 69 -2.1 28.1 0
07:10 1020 30.12 849 25.07 3 37.4 69 -2.2 28.1 0
07:11 1020 30.12 849 25.07 3.2 37.7 68 -2.2 28 0
07:12 1020 30.12 849 25.07 3.4 38.1 67 -2.1 28.2 0
07:13 1020 30.12 849 25.07 3.5 38.4 67 -2.1 28.2 0
07:14 1020 30.12 849 25.07 3.7 38.6 66 -2.1 28.3 0
07:15 1020 30.12 849 25.07 3.7 38.6 66 -2.1 28.2 0
07:16 1020 30.12 849 25.07 3.8 38.8 66 -2 28.3 0
07:17 1020 30.12 849 25.07 3.8 38.9 66 -2 28.4 0
07:18 1020 30.12 849 25.07 3.8 38.8 66 -2 28.4 0
07:19 1020 30.12 849 25.07 3.8 38.9 66 -1.9 28.5 0
07:20 1020 30.12 849 25.07 3.8 38.9 66 -2 28.4 0
07:21 1020 30.12 849 25.07 3.8 38.9 66 -2 28.4 0
07:22 1020 30.12 849 25.07 3.8 38.9 66 -2 28.4 0
07:23 1020 30.12 849 25.07 3.8 38.9 65 -2 28.3 0
07:24 1020 30.12 849 25.07 3.8 38.9 66 -2 28.4 0
07:25 1020 30.12 849 25.07 3.8 38.9 66 -2 28.4 0
07:26 1020 30.12 849 25.07 3.8 38.8 66 -2 28.4 0
07:27 1020 30.12 849 25.07 3.8 38.8 66 -2 28.4 0
07:28 1020 30.12 849 25.07 3.8 38.8 66 -2 28.4 0
07:29 1020 30.12 849 25.07 3.7 38.6 66 -2 28.4 0
07:30 1020 30.12 849 25.07 3.6 38.5 67 -2 28.4 0
07:31 1020 30.12 849 25.07 3.6 38.4 67 -2 28.4 0
07:32 1020 30.12 849 25.07 3.5 38.3 67 -2 28.4 0
07:33 1020 30.12 849 25.07 3.4 38.1 68 -2 28.5 0
07:34 1020 30.12 849 25.07 3.3 37.9 69 -2 28.4 0
07:35 1020 30.12 849 25.07 3.1 37.7 69 -2 28.5 0
07:36 1020 30.12 849 25.07 3.1 37.5 69 -2 28.4 0
07:37 1020 30.12 849 25.07 3 37.4 70 -2 28.4 0
07:38 1020 30.12 849 25.07 3 37.4 69 -2 28.3 0
07:39 1020 30.12 849 25.07 3.1 37.6 69 -2.1 28.3 0
07:40 1020 30.12 849 25.07 3.2 37.7 68 -2.1 28.2 0
07:41 1020 30.12 849 25.07 3.3 37.9 68 -2.1 28.2 0
07:42 1020 30.12 849 25.07 3.4 38.1 67 -2.1 28.3 0
07:43 1020 30.12 849 25.07 3.4 38.1 68 -1.9 28.5 0
07:44 1020 30.12 849 25.07 3.2 37.7 69 -2 28.4 0
07:45 1020 30.12 849 25.07 3 37.4 69 -2 28.3 0
07:46 1020 30.12 849 25.07 2.8 37.1 70 -2.1 28.2 0
07:47 1020 30.12 849 25.07 2.7 36.8 71 -2.1 28.1 0
07:48 1020 30.12 849 25.07 2.6 36.6 72 -2 28.3 0
07:49 1020 30.12 849 25.07 2.5 36.5 72 -2.1 28.2 0
07:50 1020 30.12 849 25.07 2.5 36.4 72 -2.1 28.2 0
07:51 1020 30.12 849 25.07 2.5 36.4 72 -2.1 28.2 0
07:52 1020 30.12 849 25.07 2.4 36.4 72 -2.1 28.1 0
07:53 1020 30.12 849 25.07 2.3 36.2 72 -2.1 28.2 0
07:54 1020 30.12 849 25.07 2.3 36.1 73 -2.2 28.1 0
07:55 1020 30.12 849 25.07 2.3 36.1 72 -2.2 28 0
07:56 1020 30.12 849 25.07 2.4 36.3 71 -2.3 27.9 0
07:57 1020 30.12 849 25.07 2.5 36.6 71 -2.2 28 0
07:58 1020 30.12 849 25.07 2.6 36.7 71 -2.1 28.2 0
07:59 1020 30.12 849 25.07 2.5 36.6 72 -2.1 28.3 0
08:00 1020 30.12 849 25.07 2.4 36.3 73 -2.1 28.3 0
08:01 1020 30.12 849 25.07 2.3 36.1 73 -2 28.4 0
08:02 1020 30.12 849 25.07 2.2 36 73 -2.1 28.3 0
08:03 1020 30.12 849 25.07 2.2 35.9 74 -2.1 28.3 0
08:04 1020 30.12 849 25.07 2.2 35.9 73 -2.2 28.1 0
08:05 1020 30.12 849 25.07 2.4 36.2 72 -2.2 28.1 0
08:06 1020 30.12 849 25.07 2.6 36.6 71 -2.2 28.1 0
08:07 1020 30.12 849 25.07 2.8 37 70 -2.1 28.2 0
08:08 1020 30.12 849 25.07 2.9 37.2 69 -2.2 28 0
08:09 1020 30.12 849 25.07 3.1 37.6 68 -2.2 28.1 0
08:10 1020 30.12 849 25.07 3.3 37.9 67 -2.2 28 0
08:11 1020 30.12 849 25.07 3.4 38.2 67 -2.1 28.2 0
08:12 1020 30.12 849 25.07 3.5 38.4 67 -2.1 28.3 0
08:13 1020 30.12 849 25.07 3.6 38.5 67 -2 28.4 0
08:14 1020 30.12 849 25.07 3.6 38.5 67 -2 28.3 0
08:15 1020 30.12 849 25.07 3.6 38.5 66 -2.1 28.2 0
08:16 1020 30.12 849 25.07 3.7 38.6 66 -2 28.4 0
08:17 1020 30.12 849 25.07 3.7 38.7 67 -1.9 28.5 0
08:18 1020 30.12 849 25.07 3.7 38.7 67 -1.9 28.6 0
08:19 1020 30.12 849 25.07 3.7 38.7 66 -1.9 28.5 0
08:20 1020 30.12 849 25.07 3.8 38.8 67 -1.8 28.7 0
08:21 1020 30.12 849 25.07 3.8 38.8 68 -1.7 29 0
08:22 1020 30.12 849 25.07 3.6 38.5 68 -1.8 28.8 0
08:23 1020 30.12 849 25.07 3.5 38.3 70 -1.6 29.2 0
08:24 1020 30.12 849 25.07 3.4 38.1 70 -1.6 29.1 0
08:25 1020 30.12 849 25.07 3.3 38 71 -1.5 29.4 0
08:26 1020 30.12 849 25.07 3.3 37.9 71 -1.5 29.2 0
08:27 1020 30.12 849 25.07 3.4 38.2 70 -1.6 29.1 0
08:28 1020 30.12 849 25.07 3.6 38.4 69 -1.7 29 0
08:29 1020 30.12 849 25.07 3.8 38.8 68 -1.6 29.1 0
08:30 1020 30.12 849 25.07 4 39.1 69 -1.3 29.7 0
08:31 1020 30.12 849 25.07 4.1 39.4 68 -1.3 29.6 0
08:32 1020 30.12 849 25.07 4.2 39.5 68 -1.2 29.8 0
08:33 1020 30.12 849 25.07 4.3 39.7 67 -1.2 29.8 0
08:34 1020 30.12 849 25.07 4.5 40.1 67 -1.1 29.9 0
08:35 1020 30.12 849 25.07 4.6 40.4 68 -0.8 30.6 0
08:36 1020 30.12 849 25.07 4.8 40.6 66 -0.9 30.3 0
08:37 1020 30.12 849 25.07 5.1 41.1 66 -0.7 30.8 0
08:38 1020 30.12 849 25.07 5.3 41.5 65 -0.8 30.6 0
08:39 1020 30.12 849 25.07 5.6 42 64 -0.6 31 0
08:40 1020 30.12 849 25.07 5.8 42.5 64 -0.5 31.1 0
08:41 1020 30.12 849 25.07 6.1 42.9 62 -0.7 30.8 0
08:42 1020 30.12 849 25.07 6.3 43.4 61 -0.7 30.7 0
08:43 1020 30.12 849 25.07 6.5 43.7 60 -0.6 30.9 0
08:44 1020 30.12 850 25.1 6.7 44 62 -0.1 31.9 0
08:45 1020 30.12 850 25.1 6.8 44.3 61 -0.1 31.7 0
08:46 1020 30.12 850 25.1 7 44.5 61 0.1 32.1 0
08:47 1020 30.12 850 25.1 7 44.6 60 -0.1 31.7 0
08:48 1020 30.12 850 25.1 7 44.5 62 0.2 32.4 0
08:49 1020 30.12 850 25.1 7 44.7 63 0.5 32.8 0
08:50 1020 30.12 850 25.1 7.1 44.8 64 0.9 33.6 0
08:51 1020 30.12 850 25.1 7.3 45.2 59 -0.1 31.8 0
08:52 1020 30.12 850 25.1 7.7 45.8 55 -0.7 30.7 0
08:53 1020 30.12 850 25.1 8.1 46.5 54 -0.7 30.8 0
08:54 1020 30.12 850 25.1 8.3 47 54 -0.5 31.2 0
08:55 1020 30.12 850 25.1 8.6 47.6 52 -0.6 30.9 0
08:56 1020 30.12 850 25.1 8.9 48 55 0.3 32.5 0
08:57 1020 30.12 850 25.1 9.1 48.4 53 0.1 32.1 0
08:58 1020 30.12 850 25.1 9.3 48.7 52 0 32 0
08:59 1020 30.12 850 25.1 9.4 48.9 48 -1.2 29.9 0
09:00 1020 30.12 850 25.1 9.5 49.2 51 -0.1 31.7 0
09:01 1020 30.12 850 25.1 9.7 49.4 49 -0.5 31.1 0
09:02 1020 30.12 850 25.1 9.7 49.5 45 -1.5 29.3 0
09:03 1020 30.12 850 25.1 9.8 49.6 47 -1 30.1 0
09:04 1020 30.12 850 25.1 9.9 49.8 48 -0.6 30.9 0
09:05 1020 30.12 850 25.1 9.9 49.9 49 -0.3 31.5 0
09:06 1020 30.12 850 25.1 10.1 50.1 51 0.4 32.7 0
09:07 1020 30.12 850 25.1 10.2 50.4 49 0.2 32.3 0
09:08 1021 30.15 850 25.1 10.4 50.7 44 -1.2 29.8 0
09:09 1021 30.15 850 25.1 10.5 51 47 -0.2 31.6 0
09:10 1021 30.15 850 25.1 10.6 51.1 49 0.3 32.6 0
09:11 1021 30.15 850 25.1 10.7 51.3 42 -1.6 29 0
09:12 1021 30.15 850 25.1 10.8 51.4 44 -0.9 30.3 0
09:13 1021 30.15 850 25.1 10.9 51.6 40 -2.1 28.2 0
09:14 1021 30.15 850 25.1 10.9 51.6 44 -0.8 30.6 0
09:15 1021 30.15 850 25.1 11 51.8 40 -1.9 28.5 0
09:16 1021 30.15 850 25.1 11 51.8 42 -1.4 29.5 0
09:17 1021 30.15 850 25.1 10.9 51.7 42 -1.5 29.4 0
09:18 1021 30.15 850 25.1 10.8 51.5 43 -1.1 29.9 0
09:19 1021 30.15 850 25.1 10.7 51.2 42 -1.5 29.2 0
09:20 1021 30.15 850 25.1 10.6 51.1 44 -1.1 30 0
09:21 1021 30.15 850 25.1 10.6 51.1 43 -1.6 29.2 0
09:22 1021 30.15 850 25.1 10.6 51 42 -1.8 28.8 0
09:23 1021 30.15 850 25.1 10.5 50.9 43 -1.6 29.1 0
09:24 1021 30.15 850 25.1 10.5 50.8 44 -1.3 29.7 0
09:25 1021 30.15 850 25.1 10.5 50.8 47 -0.2 31.7 0
09:26 1021 30.15 850 25.1 10.4 50.8 46 -0.7 30.7 0
09:27 1021 30.15 850 25.1 10.4 50.7 44 -1.3 29.7 0
09:28 1020 30.12 850 25.1 10.4 50.7 46 -0.8 30.6 0
09:29 1020 30.12 850 25.1 10.3 50.6 44 -1.3 29.7 0
09:30 1020 30.12 850 25.1 10.3 50.5 46 -0.7 30.7 0
09:31 1020 30.12 850 25.1 10.2 50.4 46 -0.7 30.7 0
09:32 1021 30.15 850 25.1 10.2 50.4 45 -1 30.2 0
09:33 1021 30.15 850 25.1 10.3 50.6 47 -0.5 31.1 0
09:34 1021 30.15 850 25.1 10.4 50.7 45 -0.9 30.3 0
09:35 1021 30.15 850 25.1 10.5 50.9 41 -2 28.4 0
09:36 1021 30.15 850 25.1 10.6 51 48 0.2 32.4 0
09:37 1021 30.15 850 25.1 10.7 51.3 47 -0.2 31.6 0
09:38 1021 30.15 850 25.1 10.8 51.5 47 0.1 32.2 0
09:39 1021 30.15 850 25.1 10.9 51.6 42 -1.3 29.6 0
09:40 1021 30.15 850 25.1 11 51.7 42 -1.4 29.4 0
09:41 1021 30.15 850 25.1 11 51.8 44 -0.6 30.9 0
09:42 1021 30.15 850 25.1 11 51.9 41 -1.6 29.2 0
09:43 1021 30.15 850 25.1 11 51.9 41 -1.6 29.1 0
09:44 1021 30.15 850 25.1 11 51.8 47 0.2 32.3 0
09:45 1021 30.15 850 25.1 11.2 52.1 43 -0.9 30.4 0
09:46 1021 30.15 850 25.1 11.2 52.1 39 -2.1 28.2 0
09:47 1021 30.15 850 25.1 11.2 52.1 44 -0.7 30.8 0
09:48 1021 30.15 850 25.1 11.2 52.2 45 -0.1 31.8 0
09:49 1021 30.15 850 25.1 11.3 52.4 42 -1.1 29.9 0
09:50 1021 30.15 850 25.1 11.5 52.6 41 -1.4 29.4 0
09:51 1021 30.15 850 25.1 11.6 52.8 43 -0.5 31.2 0
09:52 1021 30.15 850 25.1 11.7 53 40 -1.5 29.4 0
09:53 1021 30.15 850 25.1 11.8 53.2 40 -1.2 29.9 0
09:54 1021 30.15 850 25.1 11.8 53.3 43 -0.3 31.5 0
09:55 1021 30.15 850 25.1 11.9 53.4 42 -0.4 31.2 0
09:56 1021 30.15 850 25.1 11.9 53.4 41 -0.8 30.5 0
09:57 1021 30.15 850 25.1 11.9 53.4 38 -1.8 28.8 0
09:58 1021 30.15 850 25.1 12 53.5 40 -1.2 29.9 0
09:59 1021 30.15 850 25.1 12 53.5 37 -2.2 28 0
10:00 1021 30.15 850 25.1 12 53.6 37 -2.2 28 0
10:01 1021 30.15 850 25.1 12 53.7 38 -1.9 28.6 0
10:02 1021 30.15 850 25.1 12.2 54 35 -2.9 26.7 0
10:03 1021 30.15 850 25.1 12.3 54.2 39 -1.2 29.9 0
10:04 1021 30.15 850 25.1 12.4 54.4 37 -1.7 28.9 0
10:05 1021 30.15 850 25.1 12.6 54.6 37 -1.5 29.3 0
10:06 1021 30.15 850 25.1 12.7 54.8 39 -1 30.2 0
10:07 1020 30.12 850 25.1 12.8 55 35 -2.4 27.7 0
10:08 1020 30.12 850 25.1 12.7 54.9 40 -0.3 31.4 0
10:09 1020 30.12 850 25.1 12.8 55 36 -1.9 28.5 0
10:10 1020 30.12 850 25.1 12.9 55.2 36 -1.9 28.5 0
10:11 1020 30.12 850 25.1 13 55.3 33 -2.8 27 0
10:12 1020 30.12 850 25.1 13 55.3 37 -1.3 29.7 0
10:13 1020 30.12 850 25.1 13 55.4 35 -1.9 28.6 0
10:14 1020 30.12 850 25.1 13.1 55.5 33 -2.6 27.4 0
10:15 1020 30.12 850 25.1 13.1 55.5 36 -1.6 29.2 0
10:16 1020 30.12 850 25.1 13.1 55.6 33 -2.6 27.3 0
10:17 1020 30.12 850 25.1 13.2 55.8 33 -2.6 27.4 0
10:18 1020 30.12 850 25.1 13.2 55.8 33 -2.6 27.2 0
10:19 1020 30.12 850 25.1 13.2 55.7 33 -2.6 27.3 0
10:20 1020 30.12 850 25.1 13 55.5 35 -2.1 28.3 0
10:21 1020 30.12 850 25.1 13 55.4 36 -1.6 29.1 0
10:22 1020 30.12 850 25.1 13 55.4 33 -2.7 27.1 0
10:23 1020 30.12 850 25.1 13 55.3 33 -3 26.6 0
10:24 1020 30.12 850 25.1 13 55.5 34 -2.5 27.4 0
10:25 1020 30.12 850 25.1 13.2 55.8 35 -1.7 29 0
10:26 1020 30.12 850 25.1 13.4 56.1 35 -1.5 29.2 0
10:27 1020 30.12 850 25.1 13.6 56.5 36 -1.3 29.7 0
10:28 1020 30.12 850 25.1 13.8 56.8 32 -2.4 27.7 0
10:29 1020 30.12 850 25.1 14 57.2 33 -2.1 28.2 0
10:30 1020 30.12 850 25.1 14.2 57.5 34 -1.2 29.8 0
10:31 1020 30.12 850 25.1 14.4 57.9 33 -1.7 28.9 0
10:32 1020 30.12 850 25.1 14.5 58 33 -1.6 29.2 0
10:33 1020 30.12 850 25.1 14.4 58 30 -2.7 27.1 0
10:34 1020 30.12 850 25.1 14.5 58.1 30 -2.8 27 0
10:35 1020 30.12 850 25.1 14.4 57.9 31 -2.7 27.2 0
10:36 1020 30.12 850 25.1 14.2 57.6 36 -0.5 31.1 0
10:37 1020 30.12 850 25.1 14.2 57.5 30 -3.2 26.3 0
10:38 1020 30.12 850 25.1 14.2 57.5 32 -2.1 28.3 0
10:39 1020 30.12 850 25.1 14.3 57.8 33 -1.7 29 0
10:40 1020 30.12 850 25.1 14.4 57.9 37 -0 31.9 0
10:41 1020 30.12 850 25.1 14.5 58 33 -1.7 28.9 0
10:42 1020 30.12 850 25.1 14.6 58.3 34 -1.1 30.1 0
10:43 1020 30.12 850 25.1 14.8 58.6 33 -1.4 29.5 0
10:44 1020 30.12 850 25.1 14.8 58.7 36 -0 31.9 0
10:45 1020 30.12 850 25.1 14.8 58.7 34 -0.9 30.3 0
10:46 1020 30.12 850 25.1 14.8 58.6 35 -0.3 31.5 0
10:47 1020 30.12 850 25.1 14.7 58.4 33 -1.5 29.3 0
10:48 1020 30.12 850 25.1 14.7 58.4 33 -1.5 29.4 0
10:49 1020 30.12 849 25.07 14.6 58.2 33 -1.7 29 0
10:50 1020 30.12 850 25.1 14.5 58.1 32 -1.8 28.8 0
10:51 1020 30.12 850 25.1 14.5 58.1 32 -2.1 28.3 0
10:52 1020 30.12 849 25.07 14.5 58.1 33 -1.3 29.6 0
10:53 1020 30.12 849 25.07 14.6 58.2 33 -1.4 29.4 0
10:54 1020 30.12 850 25.1 14.7 58.4 35 -0.5 31 0
10:55 1020 30.12 850 25.1 14.6 58.4 34 -0.8 30.5 0
10:56 1020 30.12 850 25.1 14.5 58.2 34 -0.9 30.3 0
10:57 1020 30.12 850 25.1 14.5 58.1 35 -0.9 30.4 0
10:58 1020 30.12 850 25.1 14.4 57.9 38 0.3 32.6 0
10:59 1020 30.12 850 25.1 14.3 57.7 33 -1.8 28.8 0
11:00 1020 30.12 849 25.07 14.2 57.6 36 -0.7 30.7 0
11:01 1020 30.12 849 25.07 14.2 57.6 32 -2 28.4 0
11:02 1020 30.12 849 25.07 14.2 57.5 33 -2 28.4 0
11:03 1020 30.12 849 25.07 14.2 57.5 36 -0.5 31.1 0
11:04 1020 30.12 849 25.07 14.3 57.7 33 -1.6 29.1 0
11:05 1020 30.12 849 25.07 14.4 58 36 -0.4 31.2 0
11:06 1020 30.12 849 25.07 14.5 58.1 30 -2.7 27.2 0
11:07 1020 30.12 849 25.07 14.5 58.1 36 -0.2 31.7 0
11:08 1020 30.12 849 25.07 14.6 58.3 36 -0.3 31.5 0
11:09 1020 30.12 849 25.07 14.8 58.7 30 -2.3 27.8 0
11:10 1020 30.12 849 25.07 15 58.9 33 -1.1 30 0
11:11 1020 30.12 849 25.07 15 58.9 31 -1.7 28.9 0
11:12 1020 30.12 849 25.07 15 58.9 31 -2.1 28.3 0
11:13 1020 30.12 849 25.07 15.1 59.2 32 -1.3 29.7 0
11:14 1020 30.12 849 25.07 15.5 59.9 31 -1.3 29.7 0
11:15 1020 30.12 849 25.07 15.8 60.4 27 -2.9 26.8 0
11:16 1020 30.12 849 25.07 15.8 60.4 27 -2.9 26.8 0
11:17 1020 30.12 849 25.07 15.6 60 31 -1.6 29.2 0
11:18 1020 30.12 849 25.07 15.6 60 29 -2.3 27.8 0
11:19 1020 30.12 849 25.07 15.5 60 32 -1 30.3 0
11:20 1020 30.12 849 25.07 15.6 60 29 -2.3 27.8 0
11:21 1020 30.12 849 25.07 15.7 60.3 30 -1.9 28.6 0
11:22 1020 30.12 849 25.07 15.7 60.2 33 -0.5 31 0
11:23 1020 30.12 849 25.07 15.5 59.8 30 -1.8 28.8 0
11:24 1020 30.12 849 25.07 15.2 59.4 32 -1.4 29.5 0
11:25 1020 30.12 849 25.07 15.1 59.1 32 -1.6 29.2 0
11:26 1020 30.12 849 25.07 14.9 58.9 31 -1.8 28.8 0
11:27 1020 30.12 849 25.07 14.8 58.6 37 0.3 32.5 0
11:28 1020 30.12 849 25.07 14.6 58.3 35 -0.8 30.6 0
11:29 1020 30.12 849 25.07 14.4 57.9 34 -1.3 29.7 0
11:30 1020 30.12 849 25.07 14.3 57.8 37 -0.2 31.6 0
11:31 1020 30.12 849 25.07 14.3 57.7 36 -0.6 30.8 0
11:32 1020 30.12 849 25.07 14.3 57.7 35 -1 30.1 0
11:33 1020 30.12 849 25.07 14.3 57.8 35 -1 30.1 0
11:34 1020 30.12 849 25.07 14.4 58 32 -1.9 28.5 0
11:35 1020 30.12 849 25.07 14.5 58.2 34 -0.9 30.4 0
11:36 1020 30.12 849 25.07 14.7 58.4 33 -1.5 29.4 0
11:37 1020 30.12 849 25.07 14.8 58.7 32 -1.5 29.3 0
11:38 1020 30.12 849 25.07 15 58.9 34 -0.9 30.4 0
11:39 1020 30.12 849 25.07 15.1 59.2 37 0.8 33.4 0
11:40 1020 30.12 849 25.07 15.2 59.4 33 -1 30.3 0
11:41 1020 30.12 849 25.07 15.3 59.6 31 -1.6 29 0
11:42 1020 30.12 849 25.07 15.3 59.5 32 -1.3 29.7 0
11:43 1020 30.12 849 25.07 15.1 59.3 32 -1.5 29.3 0
11:44 1020 30.12 849 25.07 15.1 59.1 32 -1.3 29.6 0
11:45 1020 30.12 849 25.07 15.1 59.2 31 -1.8 28.8 0
11:46 1020 30.12 849 25.07 15.2 59.4 32 -1.1 30 0
11:47 1020 30.12 849 25.07 15.3 59.5 31 -1.5 29.3 0
11:48 1020 30.12 849 25.07 15.3 59.5 35 0.1 32.2 0
11:49 1020 30.12 849 25.07 15.3 59.6 31 -1.7 29 0
11:50 1020 30.12 849 25.07 15.4 59.7 32 -1 30.2 0
11:51 1020 30.12 849 25.07 15.4 59.8 33 -0.7 30.8 0
11:52 1020 30.12 849 25.07 15.4 59.7 33 -0.7 30.7 0
11:53 1020 30.12 849 25.07 15.4 59.7 32 -1.1 30.1 0
11:54 1020 30.12 849 25.07 15.5 59.8 31 -1.3 29.6 0
11:55 1020 30.12 849 25.07 15.6 60.1 32 -0.7 30.7 0
11:56 1020 30.12 849 25.07 15.8 60.5 31 -1.3 29.7 0
11:57 1020 30.12 849 25.07 16 60.8 31 -0.8 30.6 0
11:58 1020 30.12 849 25.07 16 60.8 35 0.6 33 0
11:59 1020 30.12 849 25.07 15.9 60.6 36 1 33.7 0
12:00 1020 30.12 849 25.07 15.9 60.7 35 0.7 33.3 0
12:01 1020 30.12 849 25.07 16.1 60.9 33 -0.1 31.8 0
12:02 1020 30.12 849 25.07 16.2 61.1 33 0.1 32.2 0
12:03 1020 30.12 849 25.07 16 60.9 33 -0.3 31.5 0
12:04 1020 30.12 849 25.07 15.9 60.5 30 -1.6 29 0
12:05 1020 30.12 849 25.07 15.8 60.4 30 -1.6 29 0
12:06 1020 30.12 849 25.07 15.8 60.4 30 -1.6 29.1 0
12:07 1020 30.12 849 25.07 15.8 60.4 36 1 33.7 0
12:08 1020 30.12 849 25.07 15.9 60.6 32 -0.8 30.5 0
12:09 1020 30.12 849 25.07 16 60.7 30 -1.4 29.5 0
12:10 1020 30.12 849 25.07 15.9 60.6 31 -1.2 29.8 0
12:11 1020 30.12 849 25.07 15.9 60.5 32 -0.8 30.5 0
12:12 1020 30.12 849 25.07 16.1 60.9 36 1 33.8 0
12:13 1020 30.12 849 25.07 16.4 61.4 30 -1 30.2 0
12:14 1020 30.12 849 25.07 16.5 61.6 37 1.8 35.2 0
12:15 1020 30.12 849 25.07 16.5 61.7 32 -0.3 31.5 0
12:16 1020 30.12 849 25.07 16.5 61.6 31 -0.5 31.1 0
12:17 1020 30.12 849 25.07 16.3 61.3 30 -1 30.2 0
12:18 1020 30.12 849 25.07 16.2 61.1 31 -0.9 30.4 0
12:19 1020 30.12 849 25.07 16.2 61.1 30 -1.1 30 0
12:20 1020 30.12 849 25.07 16 60.7 35 0.4 32.8 0
12:21 1020 30.12 849 25.07 15.8 60.4 34 0.2 32.3 0
12:22 1020 30.12 849 25.07 15.8 60.5 32 -0.6 30.9 0
12:23 1020 30.12 849 25.07 15.8 60.4 39 1.9 35.5 0
12:24 1020 30.12 849 25.07 15.8 60.5 37 1.2 34.2 0
12:25 1020 30.12 849 25.07 15.9 60.6 31 -1 30.3 0
12:26 1020 30.12 849 25.07 15.8 60.5 35 0.4 32.7 0
12:27 1020 30.12 849 25.07 15.8 60.5 33 -0.4 31.2 0
12:28 1020 30.12 849 25.07 15.8 60.5 35 0.5 33 0
12:29 1020 30.12 849 25.07 15.9 60.6 34 0.2 32.3 0
12:30 1020 30.12 849 25.07 16 60.7 38 1.8 35.2 0
12:31 1020 30.12 849 25.07 16 60.9 33 -0 32 0
12:32 1020 30.12 849 25.07 15.9 60.6 38 1.7 35 0
12:33 1020 30.12 849 25.07 15.7 60.3 32 -0.9 30.4 0
12:34 1020 30.12 849 25.07 15.6 60 37 1.1 34.1 0
12:35 1019 30.09 849 25.07 15.5 59.8 40 1.9 35.4 0
12:36 1019 30.09 849 25.07 15.5 59.8 36 0.4 32.7 0
12:37 1019 30.09 849 25.07 15.4 59.7 37 1.1 33.9 0
12:38 1019 30.09 849 25.07 15.4 59.8 35 0 32 0
12:39 1019 30.09 849 25.07 15.5 59.8 37 1.1 34 0
12:40 1019 30.09 849 25.07 15.4 59.8 36 0.5 32.9 0
12:41 1019 30.09 849 25.07 15.4 59.7 33 -0.6 31 0
12:42 1019 30.09 849 25.07 15.4 59.6 37 0.9 33.6 0
12:43 1019 30.09 849 25.07 15.3 59.6 34 -0.3 31.5 0
12:44 1019 30.09 849 25.07 15.2 59.4 43 2.7 36.9 0
12:45 1020 30.12 849 25.07 15.1 59.3 36 0.1 32.2 0
12:46 1020 30.12 849 25.07 15.1 59.1 37 0.5 32.8 0
12:47 1020 30.12 849 25.07 15 58.9 37 0.4 32.8 0
12:48 1020 30.12 849 25.07 14.9 58.9 36 0.1 32.2 0
12:49 1020 30.12 849 25.07 14.9 58.8 39 1.2 34.1 0
12:50 1020 30.12 849 25.07 14.9 58.8 36 0.1 32.2 0
12:51 1020 30.12 849 25.07 14.9 58.7 36 -0.1 31.8 0
12:52 1020 30.12 849 25.07 14.8 58.6 38 0.7 33.2 0
12:53 1020 30.12 849 25.07 14.8 58.7 36 0.1 32.1 0
12:54 1020 30.12 849 25.07 14.8 58.7 39 1.2 34.1 0
12:55 1019 30.09 849 25.07 14.9 58.7 38 0.8 33.4 0
12:56 1020 30.12 849 25.07 14.8 58.7 39 1.1 33.9 0
12:57 1020 30.12 849 25.07 14.8 58.7 38 0.9 33.6 0
12:58 1019 30.09 849 25.07 14.8 58.7 43 2.5 36.4 0
12:59 1020 30.12 849 25.07 14.8 58.6 36 0.1 32.2 0
13:00 1020 30.12 849 25.07 14.8 58.7 33 -1.1 30.1 0
13:01 1020 30.12 849 25.07 14.8 58.7 41 1.7 35.1 0
13:02 1020 30.12 849 25.07 14.8 58.7 38 0.6 33 0
13:03 1019 30.09 849 25.07 14.9 58.8 40 1.3 34.4 0
13:04 1020 30.12 849 25.07 14.9 58.9 33 -1 30.2 0
13:05 1020 30.12 849 25.07 14.9 58.7 37 0.3 32.6 0
13:06 1019 30.09 849 25.07 14.9 58.8 40 1.5 34.6 0
13:07 1019 30.09 849 25.07 15 58.9 34 -0.7 30.8 0
13:08 1019 30.09 849 25.07 15 59 37 0.4 32.7 0
13:09 1019 30.09 849 25.07 15.1 59.1 40 1.6 34.9 0
13:10 1019 30.09 849 25.07 15.1 59.1 36 0.4 32.6 0
13:11 1020 30.12 849 25.07 15.2 59.3 37 0.6 33.1 0
13:12 1020 30.12 849 25.07 15.3 59.5 35 -0.1 31.8 0
13:13 1020 30.12 849 25.07 15.4 59.6 37 0.9 33.6 0
13:14 1020 30.12 849 25.07 15.5 59.8 38 1.2 34.1 0
13:15 1020 30.12 849 25.07 15.6 60.1 33 -0.6 31 0
13:16 1020 30.12 849 25.07 15.7 60.2 39 1.7 35.1 0
13:17 1019 30.09 849 25.07 15.7 60.2 37 1 33.8 0
13:18 1019 30.09 849 25.07 15.7 60.3 35 0.4 32.7 0
13:19 1019 30.09 849 25.07 15.7 60.2 36 0.8 33.5 0
13:20 1019 30.09 849 25.07 15.6 60.2 37 1 33.7 0
13:21 1019 30.09 849 25.07 15.6 60 37 1.2 34.1 0
13:22 1019 30.09 849 25.07 15.5 59.9 37 0.9 33.6 0
13:23 1019 30.09 849 25.07 15.4 59.7 36 0.5 32.9 0
13:24 1019 30.09 849 25.07 15.3 59.5 37 0.6 33.1 0
13:25 1019 30.09 849 25.07 15.2 59.4 31 -1.7 28.9 0
13:26 1019 30.09 849 25.07 15.1 59.2 36 0.2 32.4 0
13:27 1019 30.09 849 25.07 15.1 59.2 39 1.4 34.6 0
13:28 1019 30.09 849 25.07 15.1 59.2 34 -0.7 30.7 0
13:29 1019 30.09 848 25.04 15.1 59.1 36 0.2 32.4 0
13:30 1019 30.09 848 25.04 15.1 59.2 33 -1.1 30.1 0
13:31 1019 30.09 849 25.07 15.1 59.3 38 1 33.8 0
13:32 1019 30.09 848 25.04 15.1 59.2 34 -0.6 31 0
13:33 1019 30.09 848 25.04 15.1 59.2 40 1.8 35.2 0
13:34 1019 30.09 848 25.04 15.1 59.1 34 -0.4 31.2 0
13:35 1019 30.09 848 25.04 15 59.1 36 0.3 32.5 0
13:36 1019 30.09 848 25.04 15 59 35 -0.3 31.5 0
13:37 1019 30.09 848 25.04 15 59 37 0.6 33 0
13:38 1019 30.09 849 25.07 15 59 37 0.6 33.1 0
13:39 1019 30.09 849 25.07 15 58.9 40 1.7 35.1 0
13:40 1019 30.09 848 25.04 15 59 34 -0.7 30.8 0
13:41 1019 30.09 849 25.07 15 58.9 39 1.2 34.1 0
13:42 1019 30.09 849 25.07 15 59 37 0.4 32.7 0
13:43 1019 30.09 849 25.07 15 59 35 -0.1 31.7 0
13:44 1019 30.09 848 25.04 15 59 35 -0.3 31.5 0
13:45 1019 30.09 849 25.07 15 58.9 38 1 33.7 0
13:46 1019 30.09 849 25.07 15 59 38 0.9 33.7 0
13:47 1019 30.09 849 25.07 15 59 42 2.2 35.9 0
13:48 1019 30.09 849 25.07 15.1 59.1 38 0.8 33.5 0
13:49 1019 30.09 849 25.07 15.1 59.1 37 0.6 33.2 0
13:50 1019 30.09 849 25.07 15.1 59.2 38 1.1 33.9 0
13:51 1019 30.09 849 25.07 15.1 59.2 35 -0.3 31.5 0
13:52 1019 30.09 849 25.07 15.2 59.3 36 0.4 32.8 0
13:53 1019 30.09 849 25.07 15.3 59.5 35 -0 31.9 0
13:54 1019 30.09 849 25.07 15.3 59.5 36 0.6 33 0
13:55 1019 30.09 848 25.04 15.3 59.5 33 -0.6 30.9 0
13:56 1019 30.09 849 25.07 15.3 59.5 33 -0.8 30.6 0
13:57 1019 30.09 848 25.04 15.3 59.6 35 0.2 32.4 0
13:58 1019 30.09 848 25.04 15.4 59.7 30 -1.8 28.8 0
13:59 1019 30.09 848 25.04 15.4 59.7 33 -0.7 30.7 0
14:00 1019 30.09 848 25.04 15.5 60 35 0.2 32.4 0
14:01 1019 30.09 848 25.04 15.7 60.2 31 -1.5 29.3 0
14:02 1019 30.09 848 25.04 15.7 60.3 33 -0.3 31.4 0
14:03 1019 30.09 848 25.04 15.7 60.3 33 -0.5 31.2 0
14:04 1019 30.09 848 25.04 15.8 60.4 33 -0.2 31.6 0
14:05 1019 30.09 848 25.04 15.9 60.5 34 0.1 32.2 0
14:06 1019 30.09 848 25.04 16 60.8 34 0.4 32.7 0
14:07 1019 30.09 848 25.04 16.1 60.9 31 -1.1 29.9 0
14:08 1019 30.09 848 25.04 16.1 61.1 33 -0.1 31.9 0
14:09 1019 30.09 848 25.04 16.2 61.1 30 -1.4 29.5 0
14:10 1019 30.09 848 25.04 16.3 61.4 30 -1.3 29.7 0
14:11 1019 30.09 848 25.04 16.4 61.6 30 -1.1 30 0
14:12 1019 30.09 848 25.04 16.5 61.8 33 0.3 32.5 0
14:13 1019 30.09 848 25.04 16.6 61.8 29 -1.5 29.4 0
14:14 1019 30.09 848 25.04 16.5 61.7 30 -0.9 30.4 0
14:15 1019 30.09 848 25.04 16.3 61.3 30 -1.3 29.7 0
14:16 1019 30.09 848 25.04 16.2 61.1 33 0 32.1 0
14:17 1019 30.09 848 25.04 16.1 61 33 -0.1 31.8 0
14:18 1019 30.09 848 25.04 16 60.9 30 -1.5 29.3 0
14:19 1019 30.09 848 25.04 16.1 60.9 31 -0.8 30.5 0
14:20 1019 30.09 848 25.04 16.1 60.9 31 -1.1 30.1 0
14:21 1019 30.09 848 25.04 16 60.9 29 -1.8 28.7 0
14:22 1019 30.09 848 25.04 16 60.9 30 -1.6 29.1 0
14:23 1019 30.09 848 25.04 16.1 61 31 -0.7 30.7 0
14:24 1019 30.09 848 25.04 16.1 61 34 0.3 32.5 0
14:25 1019 30.09 848 25.04 16.1 61 32 -0.5 31.1 0
14:26 1019 30.09 848 25.04 16 60.9 30 -1.2 29.8 0
14:27 1019 30.09 848 25.04 16 60.8 35 0.8 33.4 0
14:28 1019 30.09 848 25.04 16 60.9 31 -1.1 30.1 0
14:29 1019 30.09 848 25.04 16.2 61.1 31 -1.1 30 0
14:30 1019 30.09 848 25.04 16.2 61.2 31 -0.7 30.8 0
14:31 1019 30.09 848 25.04 16.3 61.3 30 -1.1 30 0
14:32 1019 30.09 848 25.04 16.3 61.4 30 -1.3 29.7 0
14:33 1019 30.09 848 25.04 16.3 61.4 34 0.4 32.7 0
14:34 1019 30.09 848 25.04 16.4 61.5 34 0.7 33.3 0
14:35 1019 30.09 848 25.04 16.4 61.6 33 0 32.1 0
14:36 1019 30.09 848 25.04 16.4 61.6 35 1.1 33.9 0
14:37 1019 30.09 848 25.04 16.5 61.6 37 1.9 35.5 0
14:38 1019 30.09 848 25.04 16.5 61.6 31 -0.4 31.2 0
14:39 1019 30.09 848 25.04 16.5 61.7 31 -0.7 30.8 0
14:40 1019 30.09 848 25.04 16.5 61.8 30 -1.2 29.8 0
14:41 1019 30.09 848 25.04 16.6 61.8 32 -0.2 31.6 0
14:42 1019 30.09 848 25.04 16.6 62 29 -1.4 29.5 0
14:43 1019 30.09 848 25.04 16.7 62.1 31 -0.4 31.2 0
14:44 1019 30.09 848 25.04 16.8 62.3 30 -0.9 30.3 0
14:45 1019 30.09 848 25.04 16.9 62.5 33 0.7 33.2 0
14:46 1019 30.09 848 25.04 17 62.6 30 -0.5 31 0
14:47 1019 30.09 848 25.04 17 62.6 30 -0.6 31 0
14:48 1019 30.09 848 25.04 17 62.7 32 0.2 32.3 0
14:49 1019 30.09 848 25.04 17 62.7 34 1.1 33.9 0
14:50 1019 30.09 848 25.04 17 62.6 33 0.7 33.2 0
14:51 1019 30.09 848 25.04 16.9 62.4 29 -1.3 29.7 0
14:52 1019 30.09 848 25.04 16.8 62.2 31 -0.5 31.2 0
14:53 1019 30.09 848 25.04 16.7 62.1 28 -1.7 28.9 0
14:54 1019 30.09 848 25.04 16.7 62.1 31 -0.5 31 0
14:55 1019 30.09 848 25.04 16.8 62.3 29 -1.2 29.8 0
14:56 1019 30.09 848 25.04 17 62.6 31 -0 31.9 0
14:57 1019 30.09 848 25.04 17 62.6 28 -1.7 29 0
14:58 1019 30.09 848 25.04 17 62.5 29 -1.2 29.8 0
14:59 1019 30.09 848 25.04 16.9 62.4 28 -1.4 29.5 0
15:00 1019 30.09 848 25.04 17 62.5 29 -1 30.2 0
15:01 1019 30.09 848 25.04 17 62.6 29 -0.9 30.3 0
15:02 1019 30.09 848 25.04 17.1 62.7 30 -0.4 31.2 0
15:03 1019 30.09 848 25.04 17.1 62.8 40 3.5 38.2 0
15:04 1019 30.09 848 25.04 17.2 63 33 0.8 33.4 0
15:05 1019 30.09 848 25.04 17.1 62.9 35 1.7 35 0
15:06 1019 30.09 848 25.04 17.1 62.7 32 0.4 32.7 0
15:07 1019 30.09 848 25.04 16.9 62.4 32 0 32 0
15:08 1019 30.09 848 25.04 16.8 62.2 30 -0.7 30.7 0
15:09 1019 30.09 848 25.04 16.7 62 33 0.6 33.1 0
15:10 1019 30.09 848 25.04 16.7 62 32 -0.1 31.9 0
15:11 1019 30.09 848 25.04 16.6 61.9 29 -1.3 29.6 0
15:12 1019 30.09 848 25.04 16.6 61.8 29 -1.3 29.6 0
15:13 1019 30.09 848 25.04 16.5 61.6 30 -1.1 30 0
15:14 1019 30.09 848 25.04 16.5 61.7 32 -0.1 31.8 0
15:15 1019 30.09 848 25.04 16.5 61.7 32 -0 32 0
15:16 1019 30.09 848 25.04 16.5 61.8 37 1.9 35.3 0
15:17 1019 30.09 848 25.04 16.6 61.8 31 -0.4 31.3 0
15:18 1019 30.09 848 25.04 16.6 61.8 34 0.8 33.4 0
15:19 1019 30.09 848 25.04 16.6 61.8 33 0.1 32.3 0
15:20 1019 30.09 848 25.04 16.6 61.9 41 3.4 38 0
15:21 1019 30.09 848 25.04 16.6 61.9 37 1.8 35.3 0
15:22 1019 30.09 848 25.04 16.6 61.9 32 0.1 32.1 0
15:23 1019 30.09 848 25.04 16.6 61.9 37 2 35.5 0
15:24 1019 30.09 848 25.04 16.6 61.9 36 1.6 34.9 0
15:25 1019 30.09 848 25.04 16.6 61.9 36 1.4 34.6 0
15:26 1019 30.09 848 25.04 16.6 61.8 32 0.1 32.2 0
15:27 1019 30.09 848 25.04 16.5 61.7 36 1.4 34.6 0
15:28 1019 30.09 848 25.04 16.5 61.6 37 1.9 35.4 0
15:29 1019 30.09 848 25.04 16.4 61.5 34 0.6 33 0
15:30 1019 30.09 848 25.04 16.4 61.4 32 -0.2 31.6 0
15:31 1019 30.09 848 25.04 16.4 61.5 34 0.8 33.4 0
15:32 1019 30.09 848 25.04 16.4 61.6 33 0.1 32.3 0
15:33 1019 30.09 848 25.04 16.4 61.5 36 1.3 34.3 0
15:34 1019 30.09 848 25.04 16.4 61.5 31 -0.5 31.1 0
15:35 1019 30.09 848 25.04 16.3 61.4 31 -0.7 30.8 0
15:36 1019 30.09 848 25.04 16.3 61.4 36 1.3 34.4 0
15:37 1019 30.09 848 25.04 16.3 61.4 31 -0.6 30.9 0
15:38 1019 30.09 848 25.04 16.3 61.3 35 0.7 33.3 0
15:39 1019 30.09 848 25.04 16.3 61.3 32 -0.4 31.3 0
15:40 1019 30.09 848 25.04 16.2 61.2 32 -0.2 31.6 0
15:41 1019 30.09 848 25.04 16.2 61.2 37 1.5 34.7 0
15:42 1019 30.09 848 25.04 16.2 61.2 36 1.1 34 0
15:43 1019 30.09 848 25.04 16.1 61 35 0.6 33 0
15:44 1019 30.09 848 25.04 16.1 61 37 1.7 35.1 0
15:45 1019 30.09 848 25.04 16.1 60.9 41 2.9 37.3 0
15:46 1019 30.09 848 25.04 16 60.8 39 2.3 36.2 0
15:47 1019 30.09 848 25.04 16 60.7 36 0.9 33.6 0
15:48 1019 30.09 848 25.04 15.9 60.7 36 1 33.9 0
15:49 1019 30.09 848 25.04 15.9 60.6 35 0.5 33 0
15:50 1019 30.09 848 25.04 15.9 60.6 32 -0.7 30.8 0
15:51 1019 30.09 848 25.04 15.9 60.6 34 0.1 32.1 0
15:52 1019 30.09 848 25.04 16 60.7 40 2.3 36.2 0
15:53 1019 30.09 848 25.04 16 60.7 35 0.6 33.1 0
15:54 1019 30.09 848 25.04 16 60.7 34 0.3 32.6 0
15:55 1019 30.09 848 25.04 16 60.8 36 0.9 33.6 0
15:56 1019 30.09 848 25.04 16 60.7 41 2.7 36.9 0
15:57 1019 30.09 848 25.04 16 60.8 38 1.7 35 0
15:58 1019 30.09 848 25.04 16 60.7 34 0.2 32.3 0
15:59 1019 30.09 848 25.04 16 60.7 36 0.8 33.5 0
16:00 1019 30.09 848 25.04 16 60.7 40 2.6 36.7 0
16:01 1019 30.09 848 25.04 15.9 60.7 47 4.7 40.5 0
16:02 1019 30.09 848 25.04 15.9 60.7 41 2.7 36.8 0
16:03 1019 30.09 848 25.04 15.9 60.7 38 1.9 35.4 0
16:04 1019 30.09 848 25.04 15.9 60.7 36 1.1 34 0
16:05 1019 30.09 848 25.04 16 60.7 37 1.3 34.3 0
16:06 1019 30.09 848 25.04 16 60.7 45 4 39.2 0
16:07 1019 30.09 848 25.04 16 60.7 40 2.6 36.7 0
16:08 1019 30.09 848 25.04 15.9 60.7 40 2.5 36.4 0
16:09 1019 30.09 848 25.04 15.9 60.7 45 4.2 39.5 0
16:10 1019 30.09 848 25.04 15.9 60.6 39 2.2 36 0
16:11 1019 30.09 848 25.04 15.9 60.7 43 3.6 38.4 0
16:12 1019 30.09 848 25.04 15.9 60.6 41 2.9 37.1 0
16:13 1019 30.09 848 25.04 15.9 60.6 38 1.6 34.8 0
16:14 1019 30.09 848 25.04 15.8 60.5 35 0.3 32.5 0
16:15 1019 30.09 848 25.04 15.8 60.5 37 1.3 34.3 0
16:16 1019 30.09 848 25.04 15.8 60.4 38 1.5 34.8 0
16:17 1019 30.09 848 25.04 15.8 60.4 38 1.6 34.9 0
16:18 1019 30.09 848 25.04 15.7 60.3 40 2.1 35.9 0
16:19 1019 30.09 848 25.04 15.7 60.3 42 2.8 37 0
16:20 1019 30.09 848 25.04 15.7 60.3 43 3.3 37.9 0
16:21 1019 30.09 848 25.04 15.7 60.2 43 3.4 38.1 0
16:22 1019 30.09 848 25.04 15.7 60.2 44 3.5 38.2 0
16:23 1019 30.09 848 25.04 15.6 60.1 41 2.6 36.7 0
16:24 1019 30.09 848 25.04 15.6 60.1 41 2.6 36.8 0
16:25 1019 30.09 848 25.04 15.6 60.1 44 3.4 38.2 0
16:26 1019 30.09 848 25.04 15.6 60.1 42 2.9 37.2 0
16:27 1019 30.09 848 25.04 15.6 60.1 43 3.1 37.6 0
16:28 1019 30.09 848 25.04 15.6 60.1 42 2.7 36.8 0
16:29 1019 30.09 848 25.04 15.6 60.1 43 3.3 38 0
16:30 1019 30.09 848 25.04 15.6 60.2 45 3.9 39 0
16:31 1019 30.09 848 25.04 15.6 60.1 42 3 37.4 0
16:32 1019 30.09 848 25.04 15.7 60.2 41 2.6 36.6 0
16:33 1019 30.09 848 25.04 15.7 60.2 42 3.1 37.5 0
16:34 1019 30.09 848 25.04 15.7 60.2 39 1.7 35.1 0
16:35 1019 30.09 848 25.04 15.7 60.3 39 2 35.6 0
16:36 1019 30.09 848 25.04 15.7 60.3 41 2.6 36.6 0
16:37 1019 30.09 848 25.04 15.7 60.3 38 1.7 35 0
16:38 1019 30.09 848 25.04 15.7 60.3 40 2.1 35.8 0
16:39 1019 30.09 848 25.04 15.8 60.4 43 3.3 37.9 0
16:40 1019 30.09 848 25.04 15.8 60.4 43 3.2 37.7 0
16:41 1019 30.09 848 25.04 15.8 60.4 38 1.7 35 0
16:42 1019 30.09 848 25.04 15.8 60.4 34 -0 31.9 0
16:43 1019 30.09 848 25.04 15.7 60.3 42 2.9 37.2 0
16:44 1019 30.09 848 25.04 15.8 60.4 41 2.7 36.9 0
16:45 1019 30.09 848 25.04 15.7 60.2 42 2.8 37 0
16:46 1019 30.09 848 25.04 15.7 60.2 39 2 35.6 0
16:47 1019 30.09 848 25.04 15.7 60.2 38 1.3 34.4 0
16:48 1019 30.09 848 25.04 15.6 60.2 34 0.1 32.2 0
16:49 1019 30.09 848 25.04 15.7 60.2 38 1.6 34.8 0
16:50 1019 30.09 848 25.04 15.6 60.2 37 1 33.7 0
16:51 1019 30.09 848 25.04 15.7 60.2 37 1.1 34 0
16:52 1019 30.09 848 25.04 15.7 60.2 39 1.7 35.1 0
16:53 1019 30.09 848 25.04 15.7 60.2 42 3 37.4 0
16:54 1019 30.09 848 25.04 15.6 60.1 40 2.1 35.8 0
16:55 1019 30.09 848 25.04 15.7 60.2 37 1 33.8 0
16:56 1019 30.09 848 25.04 15.6 60.1 32 -1.1 30.1 0
16:57 1019 30.09 848 25.04 15.7 60.2 32 -0.9 30.3 0
16:58 1019 30.09 848 25.04 15.7 60.3 36 0.8 33.4 0
16:59 1019 30.09 848 25.04 15.7 60.2 33 -0.6 30.9 0
17:00 1019 30.09 848 25.04 15.7 60.2 38 1.5 34.7 0
17:01 1019 30.09 848 25.04 15.7 60.2 37 1.3 34.3 0
17:02 1019 30.09 848 25.04 15.6 60.1 31 -1.2 29.8 0
17:03 1019 30.09 848 25.04 15.7 60.2 39 2 35.5 0
17:04 1019 30.09 848 25.04 15.6 60.1 43 3 37.5 0
17:05 1019 30.09 848 25.04 15.6 60 49 5 40.9 0
17:06 1019 30.09 848 25.04 15.5 59.9 47 4.4 39.8 0
17:07 1019 30.09 848 25.04 15.4 59.8 48 4.6 40.3 0
17:08 1019 30.09 848 25.04 15.4 59.7 49 4.9 40.8 0
17:09 1019 30.09 848 25.04 15.3 59.5 46 3.9 39.1 0
17:10 1019 30.09 848 25.04 15.3 59.5 46 3.7 38.6 0
17:11 1019 30.09 848 25.04 15.2 59.4 38 1.1 34 0
17:12 1019 30.09 848 25.04 15.3 59.5 36 0.4 32.8 0
17:13 1019 30.09 848 25.04 15.3 59.5 39 1.3 34.4 0
17:14 1019 30.09 848 25.04 15.3 59.6 33 -0.6 30.9 0
17:15 1019 30.09 848 25.04 15.4 59.7 36 0.5 33 0
17:16 1019 30.09 848 25.04 15.4 59.7 39 1.8 35.2 0
17:17 1019 30.09 848 25.04 15.4 59.7 37 1 33.8 0
17:18 1019 30.09 848 25.04 15.4 59.7 43 3 37.4 0
17:19 1019 30.09 848 25.04 15.3 59.6 42 2.5 36.4 0
17:20 1019 30.09 848 25.04 15.3 59.5 39 1.5 34.7 0
17:21 1019 30.09 848 25.04 15.3 59.5 39 1.6 34.9 0
17:22 1019 30.09 848 25.04 15.3 59.5 40 1.9 35.5 0
17:23 1019 30.09 848 25.04 15.3 59.5 43 2.8 37.1 0
17:24 1019 30.09 848 25.04 15.2 59.4 47 4.1 39.4 0
17:25 1019 30.09 848 25.04 15.1 59.2 50 4.8 40.7 0
17:26 1019 30.09 848 25.04 15 59 47 3.8 38.9 0
17:27 1019 30.09 848 25.04 14.9 58.8 46 3.5 38.3 0
17:28 1019 30.09 848 25.04 14.9 58.7 40 1.4 34.5 0
17:29 1019 30.09 848 25.04 14.9 58.9 41 1.9 35.5 0
17:30 1019 30.09 848 25.04 14.9 58.9 48 4 39.2 0
17:31 1019 30.09 848 25.04 14.9 58.8 46 3.5 38.2 0
17:32 1019 30.09 848 25.04 14.8 58.6 45 2.9 37.3 0
17:33 1019 30.09 848 25.04 14.8 58.6 46 3.4 38.1 0
17:34 1019 30.09 848 25.04 14.8 58.6 46 3.4 38.1 0
17:35 1019 30.09 848 25.04 14.7 58.4 46 3.2 37.7 0
17:36 1019 30.09 848 25.04 14.7 58.4 44 2.8 37 0
17:37 1019 30.09 848 25.04 14.7 58.4 46 3.3 38 0
17:38 1019 30.09 848 25.04 14.7 58.4 48 3.7 38.7 0
17:39 1019 30.09 848 25.04 14.6 58.2 47 3.5 38.2 0
17:40 1019 30.09 848 25.04 14.5 58.1 49 4.1 39.3 0
17:41 1019 30.09 848 25.04 14.5 58 50 4.1 39.5 0
17:42 1019 30.09 848 25.04 14.4 58 50 4.3 39.7 0
17:43 1019 30.09 848 25.04 14.4 58 51 4.5 40.1 0
17:44 1019 30.09 848 25.04 14.4 57.8 50 4.1 39.3 0
17:45 1019 30.09 848 25.04 14.4 57.9 48 3.7 38.6 0
17:46 1019 30.09 848 25.04 14.4 57.9 48 3.5 38.3 0
17:47 1019 30.09 848 25.04 14.5 58 49 4.1 39.3 0
17:48 1019 30.09 848 25.04 14.4 58 49 3.9 39.1 0
17:49 1019 30.09 848 25.04 14.5 58 46 3.1 37.6 0
17:50 1019 30.09 848 25.04 14.5 58.1 46 3.2 37.8 0
17:51 1019 30.09 848 25.04 14.5 58.2 46 3.2 37.7 0
17:52 1019 30.09 848 25.04 14.6 58.2 47 3.5 38.3 0
17:53 1019 30.09 848 25.04 14.5 58.2 52 4.9 40.7 0
17:54 1019 30.09 848 25.04 14.4 57.9 55 5.5 41.8 0
17:55 1019 30.09 848 25.04 14.3 57.7 54 5.3 41.5 0
17:56 1019 30.09 848 25.04 14.2 57.5 56 5.6 42.1 0
17:57 1019 30.09 848 25.04 14.1 57.3 57 5.7 42.3 0
17:58 1019 30.09 848 25.04 14 57.3 58 6.1 43 0
17:59 1019 30.09 848 25.04 13.9 57.1 58 5.8 42.5 0
18:00 1019 30.09 848 25.04 13.9 56.9 43 1.4 34.6 0
18:01 1019 30.09 848 25.04 14 57.1 35 -1 30.2 0
18:02 1019 30.09 848 25.04 14.2 57.5 34 -1.2 29.8 0
18:03 1019 30.09 848 25.04 14.4 57.8 33 -1.4 29.4 0
18:04 1019 30.09 848 25.04 14.3 57.8 55 5.6 42 0
18:05 1019 30.09 848 25.04 14 57.2 48 3.2 37.8 0
18:06 1019 30.09 848 25.04 13.9 57 46 2.5 36.6 0
18:07 1019 30.09 848 25.04 13.9 57 46 2.6 36.7 0
18:08 1019 30.09 848 25.04 13.9 57 44 2 35.6 0
18:09 1019 30.09 848 25.04 14 57.1 44 1.9 35.5 0
18:10 1019 30.09 848 25.04 14 57.3 48 3.3 38 0
18:11 1019 30.09 848 25.04 14 57.1 49 3.4 38.2 0
18:12 1019 30.09 848 25.04 14 57.1 44 2.1 35.7 0
18:13 1019 30.09 848 25.04 14 57.1 48 3.1 37.6 0
18:14 1019 30.09 848 25.04 14 57.1 51 4.1 39.4 0
18:15 1019 30.09 848 25.04 13.9 57.1 44 1.8 35.3 0
18:16 1019 30.09 848 25.04 14.2 57.5 41 1.3 34.3 0
18:17 1019 30.09 848 25.04 14.4 57.9 41 1.5 34.7 0
18:18 1019 30.09 848 25.04 14.6 58.2 40 1.1 34 0
18:19 1019 30.09 848 25.04 14.6 58.4 41 1.6 34.9 0
18:20 1019 30.09 848 25.04 14.7 58.4 40 1.5 34.6 0
18:21 1019 30.09 848 25.04 14.7 58.4 41 1.7 35 0
18:22 1019 30.09 848 25.04 14.7 58.4 43 2.4 36.2 0
18:23 1019 30.09 848 25.04 14.6 58.2 43 2.1 35.8 0
18:24 1019 30.09 848 25.04 14.5 58.1 44 2.3 36.2 0
18:25 1019 30.09 848 25.04 14.4 57.8 44 2.5 36.5 0
18:26 1019 30.09 848 25.04 14.3 57.7 46 3 37.4 0
18:27 1019 30.09 848 25.04 14.2 57.5 47 3.2 37.7 0
18:28 1019 30.09 848 25.04 14 57.2 49 3.7 38.6 0
18:29 1019 30.09 848 25.04 13.9 56.9 50 3.8 38.8 0
18:30 1019 30.09 848 25.04 13.7 56.7 49 3.2 37.7 0
18:31 1019 30.09 848 25.04 13.6 56.6 49 3.3 38 0
18:32 1019 30.09 848 25.04 13.6 56.4 49 3 37.5 0
18:33 1019 30.09 848 25.04 13.5 56.4 49 3.2 37.8 0
18:34 1019 30.09 848 25.04 13.5 56.4 46 2.1 35.8 0
18:35 1019 30.09 848 25.04 13.7 56.6 44 1.8 35.2 0
18:36 1019 30.09 848 25.04 13.9 57.1 46 2.4 36.4 0
18:37 1019 30.09 848 25.04 14.1 57.4 41 1.1 34 0
18:38 1019 30.09 848 25.04 14.4 57.8 42 1.6 34.9 0
18:39 1019 30.09 848 25.04 14.5 58.1 42 1.8 35.3 0
18:40 1019 30.09 848 25.04 14.5 58.1 41 1.5 34.6 0
18:41 1019 30.09 848 25.04 14.5 58.2 40 1.3 34.4 0
18:42 1019 30.09 848 25.04 14.6 58.2 41 1.6 34.8 0
18:43 1019 30.09 848 25.04 14.6 58.3 40 1.3 34.4 0
18:44 1019 30.09 848 25.04 14.7 58.5 40 1.4 34.4 0
18:45 1019 30.09 848 25.04 14.7 58.4 40 1.2 34.1 0
18:46 1019 30.09 848 25.04 14.6 58.2 41 1.4 34.5 0
18:47 1019 30.09 848 25.04 14.5 58 42 1.7 35.1 0
18:48 1019 30.09 848 25.04 14.4 58 42 1.8 35.2 0
18:49 1019 30.09 848 25.04 14.5 58.1 42 1.8 35.3 0
18:50 1019 30.09 848 25.04 14.6 58.2 42 1.8 35.3 0
18:51 1019 30.09 848 25.04 14.6 58.2 42 2 35.6 0
18:52 1019 30.09 848 25.04 14.5 58.1 43 2 35.6 0
18:53 1019 30.09 848 25.04 14.5 58 43 2.1 35.8 0
18:54 1019 30.09 848 25.04 14.5 58.1 42 1.9 35.4 0
18:55 1019 30.09 848 25.04 14.5 58.1 42 2 35.5 0
18:56 1019 30.09 848 25.04 14.5 58.1 43 2.1 35.8 0
18:57 1019 30.09 848 25.04 14.5 58.1 44 2.4 36.3 0
18:58 1019 30.09 848 25.04 14.4 58 44 2.6 36.6 0
18:59 1019 30.09 848 25.04 14.3 57.8 43 2 35.5 0
19:00 1019 30.09 848 25.04 14.4 58 42 1.8 35.3 0
19:01 1019 30.09 848 25.04 14.5 58.1 41 1.7 35 0
19:02 1019 30.09 848 25.04 14.6 58.3 42 1.8 35.2 0
19:03 1019 30.09 849 25.07 14.6 58.3 40 1.2 34.2 0
19:04 1019 30.09 849 25.07 14.7 58.4 42 1.9 35.4 0
19:05 1019 30.09 849 25.07 14.7 58.4 39 1.1 34 0
19:06 1019 30.09 849 25.07 14.8 58.6 39 1 33.8 0
19:07 1019 30.09 849 25.07 14.9 58.7 39 1.2 34.1 0
19:08 1019 30.09 849 25.07 14.9 58.7 39 1.2 34.1 0
19:09 1019 30.09 849 25.07 14.8 58.6 42 2.1 35.8 0
19:10 1019 30.09 849 25.07 14.7 58.4 40 1.4 34.5 0
19:11 1019 30.09 849 25.07 14.6 58.4 39 1 33.8 0
19:12 1019 30.09 849 25.07 14.7 58.5 40 1.3 34.3 0
19:13 1019 30.09 849 25.07 14.7 58.5 43 2.3 36.1 0
19:14 1019 30.09 849 25.07 14.6 58.3 45 2.9 37.1 0
19:15 1019 30.09 849 25.07 14.4 57.9 46 2.9 37.3 0
19:16 1019 30.09 848 25.04 14.1 57.4 47 3.1 37.6 0
19:17 1019 30.09 849 25.07 13.9 57 49 3.4 38.2 0
19:18 1019 30.09 849 25.07 13.7 56.6 50 3.5 38.2 0
19:19 1019 30.09 849 25.07 13.6 56.4 49 3.2 37.8 0
19:20 1019 30.09 849 25.07 13.5 56.3 51 3.7 38.6 0
19:21 1019 30.09 849 25.07 13.4 56.1 52 3.8 38.9 0
19:22 1019 30.09 849 25.07 13.4 56 53 4.1 39.3 0
19:23 1019 30.09 849 25.07 13.2 55.8 54 4.3 39.7 0
19:24 1019 30.09 849 25.07 13.2 55.7 55 4.3 39.8 0
19:25 1019 30.09 849 25.07 13.1 55.5 56 4.5 40 0
19:26 1019 30.09 849 25.07 13 55.4 55 4.3 39.8 0
19:27 1019 30.09 849 25.07 13 55.4 55 4.3 39.7 0
19:28 1019 30.09 849 25.07 13 55.4 55 4.3 39.7 0
19:29 1019 30.09 849 25.07 12.9 55.3 56 4.4 39.9 0
19:30 1019 30.09 849 25.07 12.9 55.2 57 4.6 40.2 0
19:31 1019 30.09 849 25.07 12.8 55.1 56 4.5 40 0
19:32 1019 30.09 849 25.07 12.8 55 58 4.7 40.5 0
19:33 1019 30.09 849 25.07 12.7 54.9 58 4.7 40.4 0
19:34 1019 30.09 848 25.04 12.7 54.8 58 4.6 40.3 0
19:35 1019 30.09 848 25.04 12.6 54.7 58 4.6 40.2 0
19:36 1019 30.09 848 25.04 12.7 54.8 58 4.6 40.2 0
19:37 1019 30.09 848 25.04 12.6 54.7 58 4.7 40.4 0
19:38 1019 30.09 848 25.04 12.6 54.6 59 4.9 40.9 0
19:39 1019 30.09 848 25.04 12.6 54.6 60 5.1 41.2 0
19:40 1019 30.09 848 25.04 12.5 54.4 62 5.3 41.6 0
19:41 1019 30.09 848 25.04 12.3 54.2 62 5.4 41.7 0
19:42 1019 30.09 848 25.04 12.2 54 63 5.3 41.6 0
19:43 1019 30.09 848 25.04 12.2 53.9 62 5.2 41.3 0
19:44 1019 30.09 848 25.04 12.1 53.8 63 5.3 41.5 0
19:45 1019 30.09 848 25.04 12.1 53.8 60 4.8 40.6 0
19:46 1019 30.09 848 25.04 12.2 54 58 4.3 39.7 0
19:47 1019 30.09 848 25.04 12.4 54.3 57 4.2 39.6 0
19:48 1019 30.09 848 25.04 12.5 54.6 56 4.2 39.5 0
19:49 1019 30.09 848 25.04 12.7 54.8 57 4.4 39.9 0
19:50 1019 30.09 848 25.04 12.7 54.9 57 4.5 40.2 0
19:51 1019 30.09 848 25.04 12.7 54.8 57 4.4 39.9 0
19:52 1019 30.09 848 25.04 12.7 54.9 57 4.4 39.8 0
19:53 1019 30.09 848 25.04 12.8 55 56 4.3 39.8 0
19:54 1019 30.09 848 25.04 12.8 55 57 4.6 40.3 0
19:55 1019 30.09 848 25.04 12.8 55 57 4.6 40.3 0
19:56 1019 30.09 848 25.04 12.7 54.9 58 4.7 40.4 0
19:57 1019 30.09 848 25.04 12.7 54.9 57 4.6 40.3 0
19:58 1019 30.09 848 25.04 12.8 55 58 4.8 40.6 0
19:59 1019 30.09 848 25.04 12.7 54.9 58 4.6 40.3 0
20:00 1019 30.09 848 25.04 12.7 54.8 58 4.8 40.6 0
20:01 1019 30.09 848 25.04 12.6 54.7 58 4.5 40.1 0
20:02 1019 30.09 848 25.04 12.6 54.7 57 4.4 39.9 0
20:03 1019 30.09 848 25.04 12.6 54.6 58 4.6 40.2 0
20:04 1019 30.09 848 25.04 12.6 54.6 58 4.5 40 0
20:05 1019 30.09 848 25.04 12.5 54.5 58 4.6 40.2 0
20:06 1019 30.09 848 25.04 12.4 54.4 58 4.5 40.2 0
20:07 1019 30.09 848 25.04 12.4 54.3 57 4.2 39.6 0
20:08 1019 30.09 848 25.04 12.4 54.4 58 4.4 39.8 0
20:09 1019 30.09 848 25.04 12.4 54.3 58 4.5 40.1 0
20:10 1019 30.09 848 25.04 12.4 54.2 58 4.3 39.7 0
20:11 1019 30.09 848 25.04 12.4 54.2 58 4.3 39.7 0
20:12 1019 30.09 848 25.04 12.3 54.2 57 4.2 39.5 0
20:13 1019 30.09 848 25.04 12.3 54.2 57 4.2 39.5 0
20:14 1019 30.09 848 25.04 12.3 54.2 57 4 39.3 0
20:15 1019 30.09 848 25.04 12.4 54.3 55 3.8 38.8 0
20:16 1019 30.09 849 25.07 12.4 54.4 56 4 39.2 0
20:17 1019 30.09 849 25.07 12.4 54.4 56 4 39.2 0
20:18 1019 30.09 849 25.07 12.5 54.4 56 4 39.2 0
20:19 1019 30.09 849 25.07 12.5 54.4 57 4.1 39.4 0
20:20 1019 30.09 849 25.07 12.5 54.4 58 4.5 40.1 0
20:21 1019 30.09 849 25.07 12.4 54.2 59 4.6 40.2 0
20:22 1019 30.09 849 25.07 12.3 54.1 60 4.8 40.6 0
20:23 1019 30.09 849 25.07 12.1 53.8 61 4.8 40.6 0
20:24 1019 30.09 849 25.07 12 53.6 61 4.9 40.8 0
20:25 1019 30.09 849 25.07 11.9 53.4 62 5 41 0
20:26 1019 30.09 849 25.07 11.8 53.3 62 4.9 40.9 0
20:27 1019 30.09 849 25.07 11.8 53.3 61 4.6 40.3 0
20:28 1019 30.09 849 25.07 11.9 53.3 59 4.1 39.4 0
20:29 1019 30.09 849 25.07 12 53.6 59 4.4 40 0
20:30 1019 30.09 849 25.07 12 53.6 59 4.4 39.9 0
20:31 1019 30.09 849 25.07 12 53.7 59 4.4 40 0
20:32 1019 30.09 849 25.07 12 53.7 59 4.4 39.9 0
20:33 1019 30.09 849 25.07 12.1 53.7 59 4.4 40 0
20:34 1019 30.09 849 25.07 12 53.6 61 4.7 40.4 0
20:35 1019 30.09 849 25.07 12 53.5 61 4.8 40.6 0
20:36 1019 30.09 849 25.07 11.9 53.3 61 4.7 40.4 0
20:37 1019 30.09 849 25.07 11.8 53.3 61 4.7 40.5 0
20:38 1019 30.09 849 25.07 11.8 53.2 62 4.8 40.7 0
20:39 1019 30.09 849 25.07 11.8 53.2 63 5.1 41.1 0
20:40 1019 30.09 849 25.07 11.7 53.1 60 4.4 39.8 0
20:41 1019 30.09 849 25.07 11.8 53.3 61 4.6 40.3 0
20:42 1019 30.09 849 25.07 12 53.6 58 4 39.2 0
20:43 1020 30.12 849 25.07 12.1 53.8 55 3.5 38.2 0
20:44 1020 30.12 849 25.07 12.3 54.1 54 3.4 38 0
20:45 1020 30.12 849 25.07 12.4 54.3 53 3.1 37.5 0
20:46 1020 30.12 849 25.07 12.5 54.6 56 4.1 39.3 0
20:47 1020 30.12 849 25.07 12.5 54.4 59 4.7 40.5 0
20:48 1020 30.12 849 25.07 12.3 54.1 61 4.9 40.9 0
20:49 1020 30.12 849 25.07 12.1 53.7 61 4.8 40.6 0
20:50 1020 30.12 849 25.07 11.9 53.4 62 5 41 0
20:51 1020 30.12 849 25.07 11.8 53.2 63 5.1 41.1 0
20:52 1020 30.12 849 25.07 11.7 53 64 5.1 41.3 0
20:53 1020 30.12 849 25.07 11.7 53 65 5.2 41.4 0
20:54 1020 30.12 849 25.07 11.6 52.8 66 5.4 41.8 0
20:55 1020 30.12 849 25.07 11.5 52.7 66 5.4 41.8 0
20:56 1020 30.12 849 25.07 11.4 52.6 67 5.5 41.8 0
20:57 1020 30.12 849 25.07 11.3 52.4 68 5.7 42.2 0
20:58 1020 30.12 849 25.07 11.3 52.3 67 5.5 41.9 0
20:59 1020 30.12 849 25.07 11.3 52.3 68 5.6 42.1 0
21:00 1020 30.12 849 25.07 11.3 52.3 64 4.8 40.7 0
21:01 1020 30.12 849 25.07 11.4 52.6 63 4.7 40.4 0
21:02 1020 30.12 849 25.07 11.6 52.9 61 4.3 39.8 0
21:03 1020 30.12 849 25.07 11.8 53.2 62 4.8 40.6 0
21:04 1020 30.12 849 25.07 11.8 53.2 65 5.5 41.9 0
21:05 1020 30.12 849 25.07 11.6 52.9 66 5.5 42 0
21:06 1020 30.12 849 25.07 11.5 52.7 65 5.3 41.5 0
21:07 1020 30.12 849 25.07 11.5 52.6 64 4.9 40.9 0
21:08 1020 30.12 849 25.07 11.5 52.7 63 4.7 40.5 0
21:09 1020 30.12 849 25.07 11.6 52.9 63 4.9 40.8 0
21:10 1020 30.12 849 25.07 11.6 52.9 65 5.3 41.6 0
21:11 1020 30.12 849 25.07 11.5 52.7 67 5.6 42.1 0
21:12 1020 30.12 849 25.07 11.3 52.3 70 6 42.7 0
21:13 1020 30.12 849 25.07 11.1 51.9 71 6 42.8 0
21:14 1020 30.12 849 25.07 11 51.7 71 6 42.8 0
21:15 1020 30.12 849 25.07 10.8 51.5 74 6.4 43.5 0
21:16 1020 30.12 849 25.07 10.7 51.3 74 6.2 43.2 0
21:17 1020 30.12 849 25.07 10.7 51.2 75 6.4 43.6 0
21:18 1020 30.12 849 25.07 10.6 51 76 6.6 43.8 0
21:19 1020 30.12 849 25.07 10.6 51 74 6.1 43 0
21:20 1020 30.12 849 25.07 10.6 51.1 75 6.4 43.6 0
21:21 1020 30.12 849 25.07 10.6 51 76 6.5 43.8 0
21:22 1020 30.12 849 25.07 10.5 50.8 77 6.6 43.9 0
21:23 1020 30.12 849 25.07 10.4 50.8 77 6.7 44 0
21:24 1020 30.12 849 25.07 10.4 50.8 77 6.5 43.7 0
21:25 1020 30.12 849 25.07 10.4 50.7 76 6.5 43.6 0
21:26 1020 30.12 849 25.07 10.5 50.8 78 6.8 44.2 0
21:27 1020 30.12 850 25.1 10.4 50.7 77 6.6 43.9 0
21:28 1020 30.12 850 25.1 10.3 50.6 78 6.7 44.1 0
21:29 1020 30.12 850 25.1 10.3 50.6 78 6.8 44.2 0
21:30 1020 30.12 850 25.1 10.3 50.5 79 6.9 44.5 0
21:31 1020 30.12 850 25.1 10.3 50.5 79 6.9 44.3 0
21:32 1020 30.12 850 25.1 10.2 50.3 80 6.9 44.5 0
21:33 1020 30.12 850 25.1 10.1 50.2 81 6.9 44.5 0
21:34 1020 30.12 850 25.1 10.1 50.1 80 6.8 44.2 0
21:35 1020 30.12 850 25.1 10.1 50.1 80 6.8 44.2 0
21:36 1021 30.15 850 25.1 10.1 50.2 80 6.9 44.3 0
21:37 1021 30.15 850 25.1 10.1 50.2 81 7 44.6 0
21:38 1021 30.15 850 25.1 10 50.1 81 7 44.5 0
21:39 1021 30.15 850 25.1 10 49.9 83 7.2 44.9 0
21:40 1021 30.15 850 25.1 10 49.9 83 7.1 44.9 0
21:41 1021 30.15 850 25.1 9.9 49.8 83 7.1 44.8 0
21:42 1021 30.15 850 25.1 9.9 49.8 83 7.2 44.9 0
21:43 1021 30.15 850 25.1 9.8 49.6 84 7.3 45.1 0
21:44 1021 30.15 850 25.1 9.7 49.5 84 7.2 45 0
21:45 1021 30.15 850 25.1 9.7 49.4 84 7.1 44.8 0
21:46 1021 30.15 850 25.1 9.7 49.5 85 7.3 45.1 0
21:47 1021 30.15 850 25.1 9.7 49.4 85 7.3 45.2 0
21:48 1021 30.15 850 25.1 9.6 49.3 86 7.3 45.2 0
21:49 1021 30.15 850 25.1 9.6 49.2 86 7.3 45.1 0
21:50 1021 30.15 850 25.1 9.6 49.3 86 7.3 45.2 0
21:51 1021 30.15 850 25.1 9.6 49.2 85 7.2 44.9 0
21:52 1021 30.15 850 25.1 9.6 49.3 85 7.2 45 0
21:53 1021 30.15 850 25.1 9.6 49.3 84 7 44.6 0
21:54 1021 30.15 850 25.1 9.6 49.4 85 7.2 44.9 0
21:55 1021 30.15 850 25.1 9.6 49.2 85 7.3 45.1 0
21:56 1021 30.15 850 25.1 9.6 49.2 83 6.9 44.4 0
21:57 1021 30.15 850 25.1 9.6 49.2 83 6.9 44.4 0
21:58 1021 30.15 850 25.1 9.6 49.2 81 6.6 43.8 0
21:59 1021 30.15 850 25.1 9.6 49.3 82 6.7 44.1 0
22:00 1021 30.15 850 25.1 9.6 49.2 81 6.5 43.8 0
22:01 1021 30.15 850 25.1 9.6 49.2 82 6.7 44 0
22:02 1021 30.15 850 25.1 9.5 49.1 83 6.7 44.1 0
22:03 1021 30.15 850 25.1 9.4 48.9 83 6.7 44 0
22:04 1021 30.15 850 25.1 9.4 48.9 83 6.7 44.1 0
22:05 1021 30.15 850 25.1 9.3 48.8 84 6.7 44.1 0
22:06 1021 30.15 850 25.1 9.3 48.7 84 6.7 44 0
22:07 1021 30.15 850 25.1 9.2 48.6 83 6.5 43.8 0
22:08 1021 30.15 850 25.1 9.2 48.5 84 6.6 44 0
22:09 1021 30.15 850 25.1 9.1 48.4 84 6.5 43.7 0
22:10 1021 30.15 850 25.1 9.1 48.5 82 6.2 43.2 0
22:11 1021 30.15 850 25.1 9.1 48.5 84 6.5 43.8 0
22:12 1021 30.15 850 25.1 9.1 48.4 82 6.3 43.3 0
22:13 1021 30.15 850 25.1 9.1 48.3 83 6.3 43.3 0
22:14 1021 30.15 850 25.1 9.1 48.3 84 6.4 43.6 0
22:15 1021 30.15 850 25.1 9 48.3 82 6.2 43.2 0
22:16 1021 30.15 850 25.1 9 48.2 83 6.3 43.3 0
22:17 1021 30.15 850 25.1 9 48.2 83 6.3 43.3 0
22:18 1021 30.15 850 25.1 9 48.2 83 6.2 43.2 0
22:19 1021 30.15 850 25.1 9 48.1 83 6.3 43.4 0
22:20 1021 30.15 850 25.1 9 48.1 85 6.5 43.7 0
22:21 1021 30.15 850 25.1 8.9 48 84 6.4 43.5 0
22:22 1021 30.15 850 25.1 8.9 48 83 6.2 43.2 0
22:23 1021 30.15 850 25.1 8.9 48.1 83 6.2 43.2 0
22:24 1021 30.15 850 25.1 8.9 48.1 84 6.3 43.4 0
22:25 1021 30.15 850 25.1 8.9 48.1 84 6.4 43.5 0
22:26 1021 30.15 850 25.1 8.9 48 84 6.4 43.5 0
22:27 1021 30.15 850 25.1 8.9 48.1 81 5.9 42.7 0
22:28 1021 30.15 850 25.1 8.9 48.1 82 6 42.9 0
22:29 1021 30.15 850 25.1 9 48.2 83 6.2 43.2 0
22:30 1021 30.15 850 25.1 8.9 48 84 6.3 43.3 0
22:31 1021 30.15 850 25.1 8.9 47.9 84 6.2 43.2 0
22:32 1021 30.15 850 25.1 8.9 47.9 83 6.2 43.1 0
22:33 1021 30.15 850 25.1 8.8 47.8 83 6.1 43.1 0
22:34 1021 30.15 850 25.1 8.8 47.8 84 6.2 43.2 0
22:35 1021 30.15 850 25.1 8.7 47.7 85 6.4 43.5 0
22:36 1021 30.15 850 25.1 8.7 47.6 86 6.4 43.5 0
22:37 1021 30.15 850 25.1 8.6 47.6 86 6.4 43.6 0
22:38 1021 30.15 850 25.1 8.5 47.3 86 6.3 43.4 0
22:39 1021 30.15 850 25.1 8.5 47.3 86 6.3 43.4 0
22:40 1021 30.15 850 25.1 8.5 47.3 86 6.4 43.5 0
22:41 1021 30.15 850 25.1 8.5 47.2 87 6.5 43.7 0
22:42 1021 30.15 850 25.1 8.4 47.2 87 6.4 43.5 0
22:43 1021 30.15 850 25.1 8.4 47.2 87 6.4 43.4 0
22:44 1021 30.15 850 25.1 8.4 47.1 86 6.3 43.3 0
22:45 1021 30.15 850 25.1 8.4 47.1 86 6.2 43.2 0
22:46 1021 30.15 850 25.1 8.5 47.2 86 6.2 43.2 0
22:47 1021 30.15 850 25.1 8.5 47.2 86 6.3 43.4 0
22:48 1021 30.15 850 25.1 8.5 47.2 86 6.3 43.3 0
22:49 1021 30.15 850 25.1 8.4 47.2 86 6.3 43.3 0
22:50 1021 30.15 850 25.1 8.4 47.1 87 6.3 43.4 0
22:51 1021 30.15 850 25.1 8.4 47.1 86 6.3 43.3 0
22:52 1021 30.15 850 25.1 8.4 47.2 86 6.3 43.3 0
22:53 1021 30.15 850 25.1 8.5 47.2 86 6.3 43.3 0
22:54 1021 30.15 850 25.1 8.4 47.2 86 6.3 43.3 0
22:55 1021 30.15 850 25.1 8.4 47.1 86 6.2 43.2 0
22:56 1021 30.15 850 25.1 8.4 47.2 86 6.2 43.1 0
22:57 1021 30.15 850 25.1 8.4 47.2 86 6.2 43.1 0
22:58 1021 30.15 850 25.1 8.4 47.2 87 6.3 43.4 0
22:59 1021 30.15 850 25.1 8.4 47.1 86 6.2 43.2 0
23:00 1021 30.15 850 25.1 8.4 47.1 86 6.2 43.1 0
23:01 1021 30.15 850 25.1 8.5 47.2 85 6.1 43 0
23:02 1021 30.15 850 25.1 8.5 47.3 85 6.1 43 0
23:03 1021 30.15 850 25.1 8.5 47.2 85 6.2 43.1 0
23:04 1021 30.15 850 25.1 8.5 47.2 86 6.2 43.2 0
23:05 1021 30.15 850 25.1 8.4 47.1 87 6.3 43.4 0
23:06 1021 30.15 850 25.1 8.4 47.1 86 6.2 43.2 0
23:07 1021 30.15 850 25.1 8.4 47.1 85 6 42.8 0
23:08 1021 30.15 850 25.1 8.4 47.1 87 6.3 43.4 0
23:09 1021 30.15 850 25.1 8.4 47.1 86 6.2 43.1 0
23:10 1021 30.15 850 25.1 8.4 47.1 86 6.2 43.2 0
23:11 1021 30.15 850 25.1 8.4 47.1 85 6 42.8 0
23:12 1021 30.15 850 25.1 8.4 47.2 84 6 42.7 0
23:13 1021 30.15 850 25.1 8.5 47.2 85 6.1 43 0
23:14 1021 30.15 850 25.1 8.5 47.2 85 6 42.8 0
23:15 1021 30.15 850 25.1 8.5 47.3 84 6 42.9 0
23:16 1021 30.15 850 25.1 8.5 47.3 84 6 42.8 0
23:17 1021 30.15 850 25.1 8.5 47.3 85 6.1 42.9 0
23:18 1021 30.15 850 25.1 8.5 47.3 85 6.1 43 0
23:19 1021 30.15 850 25.1 8.5 47.4 83 5.9 42.6 0
23:20 1021 30.15 850 25.1 8.6 47.4 84 6 42.7 0
23:21 1021 30.15 850 25.1 8.6 47.5 84 6 42.8 0
23:22 1021 30.15 850 25.1 8.6 47.4 83 5.8 42.5 0
23:23 1021 30.15 850 25.1 8.6 47.6 84 6.1 43 0
23:24 1021 30.15 850 25.1 8.6 47.5 83 5.8 42.5 0
23:25 1021 30.15 850 25.1 8.6 47.6 84 6.1 42.9 0
23:26 1021 30.15 850 25.1 8.6 47.5 84 6 42.8 0
23:27 1021 30.15 850 25.1 8.6 47.5 82 5.8 42.4 0
23:28 1021 30.15 850 25.1 8.6 47.5 83 5.8 42.5 0
23:29 1021 30.15 850 25.1 8.6 47.5 82 5.6 42.1 0
23:30 1021 30.15 850 25.1 8.7 47.6 81 5.7 42.2 0
23:31 1021 30.15 850 25.1 8.7 47.6 83 6 42.7 0
23:32 1021 30.15 850 25.1 8.6 47.6 80 5.4 41.8 0
23:33 1021 30.15 850 25.1 8.7 47.6 81 5.6 42.2 0
23:34 1021 30.15 850 25.1 8.7 47.6 82 5.8 42.4 0
23:35 1021 30.15 850 25.1 8.7 47.6 81 5.6 42 0
23:36 1021 30.15 850 25.1 8.7 47.6 81 5.6 42 0
23:37 1021 30.15 850 25.1 8.7 47.7 81 5.6 42.1 0
23:38 1021 30.15 850 25.1 8.6 47.6 79 5.2 41.4 0
23:39 1021 30.15 850 25.1 8.7 47.7 80 5.5 41.8 0
23:40 1021 30.15 850 25.1 8.7 47.6 80 5.4 41.7 0
23:41 1021 30.15 850 25.1 8.7 47.6 79 5.3 41.5 0
23:42 1021 30.15 850 25.1 8.7 47.7 79 5.3 41.6 0
23:43 1021 30.15 850 25.1 8.8 47.8 79 5.4 41.7 0
23:44 1021 30.15 850 25.1 8.8 47.8 78 5.2 41.3 0
23:45 1021 30.15 850 25.1 8.8 47.8 78 5.2 41.3 0
23:46 1021 30.15 850 25.1 8.8 47.8 78 5.2 41.4 0
23:47 1021 30.15 850 25.1 8.8 47.8 78 5.2 41.4 0
23:48 1021 30.15 850 25.1 8.8 47.9 79 5.4 41.7 0
23:49 1021 30.15 850 25.1 8.8 47.9 78 5.2 41.4 0
23:50 1021 30.15 850 25.1 8.9 48 78 5.2 41.4 0
23:51 1021 30.15 850 25.1 8.9 48.1 78 5.3 41.5 0
23:52 1021 30.15 850 25.1 8.9 48 79 5.5 41.8 0
23:53 1021 30.15 850 25.1 8.9 48 80 5.6 42.1 0
23:54 1021 30.15 850 25.1 8.8 47.9 80 5.5 42 0
23:55 1021 30.15 850 25.1 8.8 47.9 81 5.7 42.2 0
23:56 1021 30.15 850 25.1 8.8 47.8 79 5.4 41.7 0
23:57 1021 30.15 850 25.1 8.8 47.8 81 5.7 42.2 0
23:58 1021 30.15 850 25.1 8.8 47.8 80 5.5 42 0
23:59 1021 30.15 850 25.1 8.7 47.7 82 5.8 42.4 0
24:00 1021 30.15 850 25.1 8.7 47.7 81 5.7 42.2 0